| time (UTC) | temp F | wind direction | speed knots | gust knots | rain 1hr in | rain 24hr in | rain mn in | humidity % | barometer mb |
| 20260906065203 | 81 | 347 | 7.8 | 0.0 | 0.00 | 0.00 | 0.00 | 29 | 1017.0 |
| 20260906065002 | 81 | 347 | 7.8 | 0.0 | 0.00 | 0.00 | 0.00 | 29 | 1017.0 |
| 20260906064802 | 81 | 347 | 7.8 | 0.0 | 0.00 | 0.00 | 0.00 | 29 | 1017.0 |
| 20260906064602 | 81 | 347 | 7.8 | 0.0 | 0.00 | 0.00 | 0.00 | 29 | 1017.0 |
| 20260906064402 | 81 | 347 | 7.8 | 0.0 | 0.00 | 0.00 | 0.00 | 29 | 1017.0 |
| 20260906064202 | 81 | 347 | 7.8 | 0.0 | 0.00 | 0.00 | 0.00 | 29 | 1017.0 |
| 20260906064002 | 81 | 347 | 7.8 | 0.0 | 0.00 | 0.00 | 0.00 | 29 | 1017.0 |
| 20260906063803 | 81 | 347 | 7.8 | 0.0 | 0.00 | 0.00 | 0.00 | 29 | 1017.0 |
| 20260906063603 | 76 | 308 | 4.3 | 0.0 | 0.00 | 0.00 | 0.00 | 37 | 1017.0 |
| 20260906063403 | 81 | 347 | 7.8 | 0.0 | 0.00 | 0.00 | 0.00 | 32 | 1017.0 |
| 20260906063202 | 81 | 347 | 7.8 | 0.0 | 0.00 | 0.00 | 0.00 | 32 | 1017.0 |
| 20260906063002 | 76 | 308 | 4.3 | 0.0 | 0.00 | 0.00 | 0.00 | 37 | 1017.0 |
| 20260906062802 | 77 | 308 | 4.3 | 0.0 | 0.00 | 0.00 | 0.00 | 37 | 1017.0 |
| 20260906062602 | 77 | 308 | 4.3 | 0.0 | 0.00 | 0.00 | 0.00 | 37 | 1017.0 |
| 20260906062402 | 77 | 308 | 4.3 | 0.0 | 0.00 | 0.00 | 0.00 | 37 | 1017.0 |
| 20260906062202 | 77 | 308 | 4.3 | 0.0 | 0.00 | 0.00 | 0.00 | 37 | 1017.0 |
| 20260906062003 | 77 | 308 | 4.3 | 0.0 | 0.00 | 0.00 | 0.00 | 37 | 1017.0 |
| 20260906061802 | 77 | 308 | 4.3 | 0.0 | 0.00 | 0.00 | 0.00 | 37 | 1017.0 |
| 20260906061603 | 74 | 308 | 4.3 | 0.0 | 0.00 | 0.00 | 0.00 | 37 | 1017.0 |
| 20260906061403 | 74 | 308 | 4.3 | 0.0 | 0.00 | 0.00 | 0.00 | 37 | 1017.0 |
| 20260906061202 | 74 | 308 | 4.3 | 0.0 | 0.00 | 0.00 | 0.00 | 37 | 1017.0 |
| 20260906061002 | 74 | 308 | 4.3 | 0.0 | 0.00 | 0.00 | 0.00 | 37 | 1017.0 |
| 20260906060802 | 74 | 308 | 4.3 | 0.0 | 0.00 | 0.00 | 0.00 | 37 | 1017.0 |
| 20260906060603 | 75 | 308 | 4.3 | 0.0 | 0.00 | 0.00 | 0.00 | 37 | 1017.0 |
| 20260906060403 | 75 | 308 | 4.3 | 0.0 | 0.00 | 0.00 | 0.00 | 37 | 1017.0 |
| 20260906060202 | 75 | 308 | 4.3 | 0.0 | 0.00 | 0.00 | 0.00 | 37 | 1017.0 |
| 20260906060002 | 76 | 308 | 4.3 | 0.0 | 0.00 | 0.00 | 0.00 | 37 | 1017.0 |
| 20260906055802 | 76 | 308 | 4.3 | 0.0 | 0.00 | 0.00 | 0.00 | 37 | 1017.0 |
| 20260906055602 | 76 | 308 | 4.3 | 0.0 | 0.00 | 0.00 | 0.00 | 37 | 1017.0 |
| 20260906055402 | 76 | 308 | 4.3 | 0.0 | 0.00 | 0.00 | 0.00 | 37 | 1017.0 |
| 20260906055202 | 76 | 308 | 4.3 | 0.0 | 0.00 | 0.00 | 0.00 | 37 | 1017.0 |
| 20260906055002 | 74 | 308 | 4.3 | 0.0 | 0.00 | 0.00 | 0.00 | 39 | 1017.0 |
| 20260906054803 | 74 | 308 | 4.3 | 0.0 | 0.00 | 0.00 | 0.00 | 39 | 1017.0 |
| 20260906054603 | 74 | 308 | 4.3 | 0.0 | 0.00 | 0.00 | 0.00 | 39 | 1017.0 |
| 20260906054402 | 74 | 308 | 4.3 | 0.0 | 0.00 | 0.00 | 0.00 | 39 | 1017.0 |
| 20260906054202 | 75 | 308 | 4.3 | 0.0 | 0.00 | 0.00 | 0.00 | 39 | 1017.0 |
| 20260906054002 | 75 | 308 | 4.3 | 0.0 | 0.00 | 0.00 | 0.00 | 39 | 1017.0 |
| 20260906053802 | 75 | 308 | 4.3 | 0.0 | 0.00 | 0.00 | 0.00 | 39 | 1017.0 |
| 20260906053602 | 75 | 308 | 4.3 | 0.0 | 0.00 | 0.00 | 0.00 | 39 | 1017.0 |
| 20260906053402 | 75 | 308 | 4.3 | 0.0 | 0.00 | 0.00 | 0.00 | 39 | 1017.0 |
| 20260906053203 | 68 | 301 | 0.9 | 0.0 | 0.00 | 0.00 | 0.00 | 49 | 1017.0 |
| 20260906053002 | 68 | 301 | 0.9 | 0.0 | 0.00 | 0.00 | 0.00 | 49 | 1017.0 |
| 20260906052802 | 68 | 301 | 0.9 | 0.0 | 0.00 | 0.00 | 0.00 | 49 | 1017.0 |
| 20260906052602 | 68 | 301 | 0.9 | 0.0 | 0.00 | 0.00 | 0.00 | 49 | 1017.0 |
| 20260906052402 | 68 | 301 | 0.9 | 0.0 | 0.00 | 0.00 | 0.00 | 49 | 1017.0 |
| 20260906052202 | 68 | 301 | 0.9 | 0.0 | 0.00 | 0.00 | 0.00 | 49 | 1017.0 |
| 20260906052002 | 69 | 301 | 1.7 | 0.0 | 0.00 | 0.00 | 0.00 | 49 | 1017.0 |
| 20260906051802 | 69 | 301 | 1.7 | 0.0 | 0.00 | 0.00 | 0.00 | 49 | 1017.0 |
| 20260906051603 | 69 | 301 | 1.7 | 0.0 | 0.00 | 0.00 | 0.00 | 49 | 1017.0 |
| 20260906051403 | 69 | 301 | 1.7 | 0.0 | 0.00 | 0.00 | 0.00 | 49 | 1017.0 |
| 20260906051202 | 68 | 301 | 1.7 | 0.0 | 0.00 | 0.00 | 0.00 | 48 | 1017.0 |
| 20260906051002 | 68 | 301 | 1.7 | 0.0 | 0.00 | 0.00 | 0.00 | 48 | 1017.0 |
| 20260906050802 | 68 | 301 | 1.7 | 0.0 | 0.00 | 0.00 | 0.00 | 48 | 1017.0 |
| 20260906050602 | 68 | 301 | 1.7 | 0.0 | 0.00 | 0.00 | 0.00 | 48 | 1017.0 |
| 20260906050402 | 68 | 301 | 1.7 | 0.0 | 0.00 | 0.00 | 0.00 | 48 | 1017.0 |
| 20260906050202 | 68 | 301 | 1.7 | 0.0 | 0.00 | 0.00 | 0.00 | 48 | 1017.0 |
| 20260906050003 | 68 | 301 | 1.7 | 0.0 | 0.00 | 0.00 | 0.00 | 48 | 1017.0 |
| 20260906045803 | 68 | 301 | 1.7 | 0.0 | 0.00 | 0.00 | 0.00 | 48 | 1017.0 |
| 20260906045603 | 68 | 301 | 1.7 | 0.0 | 0.00 | 0.00 | 0.00 | 48 | 1017.0 |
| 20260906045402 | 68 | 301 | 1.7 | 0.0 | 0.00 | 0.00 | 0.00 | 48 | 1017.0 |
| 20260906045202 | 68 | 301 | 1.7 | 0.0 | 0.00 | 0.00 | 0.00 | 48 | 1017.0 |
| 20260906045002 | 68 | 301 | 1.7 | 0.0 | 0.00 | 0.00 | 0.00 | 48 | 1017.0 |
| 20260906044802 | 68 | 301 | 1.7 | 0.0 | 0.00 | 0.00 | 0.00 | 48 | 1017.0 |
| 20260906044602 | 68 | 301 | 1.7 | 0.0 | 0.00 | 0.00 | 0.00 | 48 | 1017.0 |
| 20260906044403 | 68 | 301 | 1.7 | 0.0 | 0.00 | 0.00 | 0.00 | 48 | 1017.0 |
| 20260906044203 | 68 | 301 | 1.7 | 0.0 | 0.00 | 0.00 | 0.00 | 48 | 1017.0 |
| 20260906044003 | 68 | 301 | 1.7 | 0.0 | 0.00 | 0.00 | 0.00 | 48 | 1017.0 |
| 20260906043803 | 68 | 301 | 1.7 | 0.0 | 0.00 | 0.00 | 0.00 | 48 | 1017.0 |
| 20260906043602 | 64 | 334 | 0.9 | 0.0 | 0.00 | 0.00 | 0.00 | 56 | 1016.0 |
| 20260906043402 | 64 | 334 | 0.9 | 0.0 | 0.00 | 0.00 | 0.00 | 56 | 1016.0 |
| 20260906043202 | 64 | 334 | 0.9 | 0.0 | 0.00 | 0.00 | 0.00 | 56 | 1016.0 |
| 20260906043002 | 64 | 334 | 0.9 | 0.0 | 0.00 | 0.00 | 0.00 | 56 | 1016.0 |
| 20260906042802 | 64 | 334 | 0.9 | 0.0 | 0.00 | 0.00 | 0.00 | 56 | 1016.0 |
| 20260906042603 | 64 | 334 | 0.9 | 0.0 | 0.00 | 0.00 | 0.00 | 56 | 1016.0 |
| 20260906042403 | 65 | 334 | 1.7 | 0.0 | 0.00 | 0.00 | 0.00 | 56 | 1016.0 |
| 20260906042202 | 65 | 334 | 1.7 | 0.0 | 0.00 | 0.00 | 0.00 | 56 | 1016.0 |
| 20260906042002 | 65 | 334 | 1.7 | 0.0 | 0.00 | 0.00 | 0.00 | 56 | 1016.0 |
| 20260906041802 | 64 | 334 | 0.9 | 0.0 | 0.00 | 0.00 | 0.00 | 53 | 1016.0 |
| 20260906041602 | 64 | 334 | 0.9 | 0.0 | 0.00 | 0.00 | 0.00 | 53 | 1016.0 |
| 20260906041402 | 64 | 334 | 0.9 | 0.0 | 0.00 | 0.00 | 0.00 | 53 | 1016.0 |
| 20260906041202 | 64 | 334 | 0.9 | 0.0 | 0.00 | 0.00 | 0.00 | 53 | 1016.0 |
| 20260906041003 | 64 | 334 | 0.9 | 0.0 | 0.00 | 0.00 | 0.00 | 53 | 1016.0 |
| 20260906040802 | 64 | 334 | 0.9 | 0.0 | 0.00 | 0.00 | 0.00 | 53 | 1016.0 |
| 20260906040602 | 65 | 334 | 1.7 | 0.0 | 0.00 | 0.00 | 0.00 | 53 | 1017.0 |
| 20260906040402 | 65 | 334 | 1.7 | 0.0 | 0.00 | 0.00 | 0.00 | 53 | 1017.0 |
| 20260906040202 | 65 | 334 | 1.7 | 0.0 | 0.00 | 0.00 | 0.00 | 53 | 1017.0 |
| 20260906040002 | 65 | 334 | 1.7 | 0.0 | 0.00 | 0.00 | 0.00 | 53 | 1017.0 |
| 20260906035802 | 65 | 334 | 1.7 | 0.0 | 0.00 | 0.00 | 0.00 | 53 | 1017.0 |
| 20260906035602 | 64 | 334 | 0.9 | 0.0 | 0.00 | 0.00 | 0.00 | 53 | 1017.0 |
| 20260906035403 | 64 | 334 | 0.9 | 0.0 | 0.00 | 0.00 | 0.00 | 53 | 1017.0 |
| 20260906035203 | 64 | 334 | 0.9 | 0.0 | 0.00 | 0.00 | 0.00 | 53 | 1017.0 |
| 20260906035003 | 64 | 334 | 0.9 | 0.0 | 0.00 | 0.00 | 0.00 | 53 | 1017.0 |
| 20260906034802 | 64 | 334 | 0.9 | 0.0 | 0.00 | 0.00 | 0.00 | 53 | 1017.0 |
| 20260906034602 | 64 | 334 | 0.9 | 0.0 | 0.00 | 0.00 | 0.00 | 53 | 1017.0 |
| 20260906034402 | 65 | 334 | 1.7 | 0.0 | 0.00 | 0.00 | 0.00 | 53 | 1017.0 |
| 20260906034202 | 65 | 334 | 1.7 | 0.0 | 0.00 | 0.00 | 0.00 | 53 | 1017.0 |
| 20260906034002 | 65 | 334 | 1.7 | 0.0 | 0.00 | 0.00 | 0.00 | 53 | 1017.0 |
| 20260906033803 | 65 | 334 | 1.7 | 0.0 | 0.00 | 0.00 | 0.00 | 53 | 1017.0 |
| 20260906033602 | 65 | 334 | 1.7 | 0.0 | 0.00 | 0.00 | 0.00 | 53 | 1017.0 |
| 20260906033403 | 65 | 334 | 1.7 | 0.0 | 0.00 | 0.00 | 0.00 | 53 | 1017.0 |
| 20260906033202 | 64 | 337 | 1.7 | 0.0 | 0.00 | 0.00 | 0.00 | 53 | 1016.0 |
| 20260906033002 | 64 | 337 | 1.7 | 0.0 | 0.00 | 0.00 | 0.00 | 53 | 1016.0 |
| 20260906032802 | 64 | 337 | 1.7 | 0.0 | 0.00 | 0.00 | 0.00 | 53 | 1016.0 |
| 20260906032602 | 64 | 337 | 1.7 | 0.0 | 0.00 | 0.00 | 0.00 | 53 | 1016.0 |
| 20260906032402 | 64 | 337 | 1.7 | 0.0 | 0.00 | 0.00 | 0.00 | 53 | 1016.0 |
| 20260906032203 | 64 | 337 | 1.7 | 0.0 | 0.00 | 0.00 | 0.00 | 53 | 1016.0 |
| 20260906032002 | 64 | 337 | 1.7 | 0.0 | 0.00 | 0.00 | 0.00 | 53 | 1016.0 |
| 20260906031802 | 64 | 337 | 1.7 | 0.0 | 0.00 | 0.00 | 0.00 | 53 | 1016.0 |
| 20260906031602 | 64 | 337 | 1.7 | 0.0 | 0.00 | 0.00 | 0.00 | 53 | 1016.0 |
| 20260906031403 | 64 | 337 | 1.7 | 0.0 | 0.00 | 0.00 | 0.00 | 53 | 1016.0 |
| 20260906031202 | 64 | 337 | 1.7 | 0.0 | 0.00 | 0.00 | 0.00 | 52 | 1016.0 |
| 20260906031003 | 64 | 337 | 1.7 | 0.0 | 0.00 | 0.00 | 0.00 | 52 | 1016.0 |
| 20260906030802 | 64 | 337 | 1.7 | 0.0 | 0.00 | 0.00 | 0.00 | 52 | 1016.0 |
| 20260906030602 | 64 | 337 | 1.7 | 0.0 | 0.00 | 0.00 | 0.00 | 52 | 1016.0 |
| 20260906030403 | 64 | 337 | 1.7 | 0.0 | 0.00 | 0.00 | 0.00 | 52 | 1016.0 |
| 20260906030202 | 64 | 337 | 1.7 | 0.0 | 0.00 | 0.00 | 0.00 | 52 | 1016.0 |
| 20260906030002 | 64 | 337 | 1.7 | 0.0 | 0.00 | 0.00 | 0.00 | 52 | 1016.0 |
| 20260906025802 | 64 | 337 | 1.7 | 0.0 | 0.00 | 0.00 | 0.00 | 52 | 1016.0 |
| 20260906025602 | 64 | 337 | 1.7 | 0.0 | 0.00 | 0.00 | 0.00 | 52 | 1016.0 |
| 20260906025402 | 64 | 337 | 1.7 | 0.0 | 0.00 | 0.00 | 0.00 | 52 | 1016.0 |
| 20260906025202 | 64 | 337 | 1.7 | 0.0 | 0.00 | 0.00 | 0.00 | 52 | 1016.0 |
| 20260906025003 | 64 | 337 | 1.7 | 0.0 | 0.00 | 0.00 | 0.00 | 52 | 1016.0 |
| 20260906024802 | 64 | 337 | 1.7 | 0.0 | 0.00 | 0.00 | 0.00 | 52 | 1016.0 |
| 20260906024602 | 64 | 337 | 1.7 | 0.0 | 0.00 | 0.00 | 0.00 | 52 | 1016.0 |
| 20260906024402 | 64 | 337 | 1.7 | 0.0 | 0.00 | 0.00 | 0.00 | 52 | 1016.0 |
| 20260906024202 | 64 | 33 | 0.9 | 0.0 | 0.00 | 0.00 | 0.00 | 53 | 1016.0 |
| 20260906024002 | 64 | 33 | 0.9 | 0.0 | 0.00 | 0.00 | 0.00 | 53 | 1016.0 |
| 20260906023802 | 64 | 33 | 0.9 | 0.0 | 0.00 | 0.00 | 0.00 | 53 | 1016.0 |
| 20260906023603 | 64 | 337 | 1.7 | 0.0 | 0.00 | 0.00 | 0.00 | 52 | 1016.0 |
| 20260906023403 | 64 | 33 | 0.9 | 0.0 | 0.00 | 0.00 | 0.00 | 53 | 1016.0 |
| 20260906023202 | 64 | 33 | 0.9 | 0.0 | 0.00 | 0.00 | 0.00 | 53 | 1016.0 |
| 20260906023002 | 65 | 33 | 1.7 | 0.0 | 0.00 | 0.00 | 0.00 | 53 | 1016.0 |
| 20260906022802 | 65 | 33 | 1.7 | 0.0 | 0.00 | 0.00 | 0.00 | 53 | 1016.0 |
| 20260906022602 | 65 | 33 | 1.7 | 0.0 | 0.00 | 0.00 | 0.00 | 53 | 1016.0 |
| 20260906022402 | 65 | 33 | 1.7 | 0.0 | 0.00 | 0.00 | 0.00 | 53 | 1016.0 |
| 20260906022202 | 65 | 33 | 1.7 | 0.0 | 0.00 | 0.00 | 0.00 | 53 | 1016.0 |
| 20260906022003 | 65 | 33 | 1.7 | 0.0 | 0.00 | 0.00 | 0.00 | 52 | 1016.0 |
| 20260906021803 | 65 | 33 | 1.7 | 0.0 | 0.00 | 0.00 | 0.00 | 52 | 1016.0 |
| 20260906021603 | 65 | 33 | 1.7 | 0.0 | 0.00 | 0.00 | 0.00 | 52 | 1016.0 |
| 20260906021402 | 65 | 33 | 1.7 | 0.0 | 0.00 | 0.00 | 0.00 | 52 | 1016.0 |
| 20260906021202 | 65 | 33 | 1.7 | 0.0 | 0.00 | 0.00 | 0.00 | 52 | 1016.0 |
| 20260906021002 | 65 | 33 | 1.7 | 0.0 | 0.00 | 0.00 | 0.00 | 52 | 1016.0 |
| 20260906020802 | 65 | 33 | 1.7 | 0.0 | 0.00 | 0.00 | 0.00 | 52 | 1016.0 |
| 20260906020602 | 65 | 33 | 1.7 | 0.0 | 0.00 | 0.00 | 0.00 | 51 | 1016.0 |
| 20260906020403 | 65 | 33 | 1.7 | 0.0 | 0.00 | 0.00 | 0.00 | 51 | 1016.0 |
| 20260906020203 | 65 | 33 | 1.7 | 0.0 | 0.00 | 0.00 | 0.00 | 51 | 1016.0 |
| 20260906020002 | 65 | 33 | 1.7 | 0.0 | 0.00 | 0.00 | 0.00 | 51 | 1016.0 |
| 20260906015803 | 65 | 33 | 1.7 | 0.0 | 0.00 | 0.00 | 0.00 | 51 | 1016.0 |
| 20260906015602 | 65 | 33 | 1.7 | 0.0 | 0.00 | 0.00 | 0.00 | 51 | 1016.0 |
| 20260906015402 | 65 | 33 | 1.7 | 0.0 | 0.00 | 0.00 | 0.00 | 51 | 1016.0 |
| 20260906015202 | 65 | 33 | 1.7 | 0.0 | 0.00 | 0.00 | 0.00 | 51 | 1016.0 |
| 20260906015002 | 65 | 33 | 1.7 | 0.0 | 0.00 | 0.00 | 0.00 | 51 | 1016.0 |
| 20260906014802 | 65 | 33 | 1.7 | 0.0 | 0.00 | 0.00 | 0.00 | 51 | 1016.0 |
| 20260906014603 | 65 | 33 | 1.7 | 0.0 | 0.00 | 0.00 | 0.00 | 51 | 1016.0 |
| 20260906014403 | 65 | 33 | 1.7 | 0.0 | 0.00 | 0.00 | 0.00 | 51 | 1016.0 |
| 20260906014202 | 65 | 33 | 1.7 | 0.0 | 0.00 | 0.00 | 0.00 | 50 | 1016.0 |
| 20260906014002 | 65 | 33 | 1.7 | 0.0 | 0.00 | 0.00 | 0.00 | 50 | 1016.0 |
| 20260906013802 | 65 | 33 | 1.7 | 0.0 | 0.00 | 0.00 | 0.00 | 50 | 1016.0 |
| 20260906013602 | 65 | 33 | 1.7 | 0.0 | 0.00 | 0.00 | 0.00 | 50 | 1016.0 |
| 20260906013402 | 65 | 33 | 1.7 | 0.0 | 0.00 | 0.00 | 0.00 | 50 | 1016.0 |
| 20260906013202 | 65 | 56 | 1.7 | 0.0 | 0.00 | 0.00 | 0.00 | 51 | 1016.0 |
| 20260906013003 | 65 | 56 | 1.7 | 0.0 | 0.00 | 0.00 | 0.00 | 51 | 1016.0 |
| 20260906012803 | 65 | 56 | 1.7 | 0.0 | 0.00 | 0.00 | 0.00 | 51 | 1016.0 |
| 20260906012602 | 65 | 56 | 1.7 | 0.0 | 0.00 | 0.00 | 0.00 | 51 | 1016.0 |
| 20260906012402 | 65 | 56 | 1.7 | 0.0 | 0.00 | 0.00 | 0.00 | 51 | 1016.0 |
| 20260906012202 | 65 | 56 | 1.7 | 0.0 | 0.00 | 0.00 | 0.00 | 51 | 1016.0 |
| 20260906012002 | 65 | 56 | 1.7 | 0.0 | 0.00 | 0.00 | 0.00 | 51 | 1016.0 |
| 20260906011802 | 65 | 56 | 1.7 | 0.0 | 0.00 | 0.00 | 0.00 | 51 | 1016.0 |
| 20260906011603 | 65 | 56 | 1.7 | 0.0 | 0.00 | 0.00 | 0.00 | 51 | 1016.0 |
| 20260906011402 | 65 | 56 | 1.7 | 0.0 | 0.00 | 0.00 | 0.00 | 51 | 1016.0 |
| 20260906011203 | 65 | 56 | 1.7 | 0.0 | 0.00 | 0.00 | 0.00 | 51 | 1016.0 |
| 20260906011002 | 65 | 56 | 1.7 | 0.0 | 0.00 | 0.00 | 0.00 | 51 | 1016.0 |
| 20260906010802 | 65 | 56 | 1.7 | 0.0 | 0.00 | 0.00 | 0.00 | 51 | 1016.0 |
| 20260906010602 | 65 | 56 | 1.7 | 0.0 | 0.00 | 0.00 | 0.00 | 49 | 1016.0 |
| 20260906010402 | 65 | 56 | 1.7 | 0.0 | 0.00 | 0.00 | 0.00 | 49 | 1016.0 |
| 20260906010202 | 65 | 56 | 1.7 | 0.0 | 0.00 | 0.00 | 0.00 | 49 | 1016.0 |
| 20260906010002 | 65 | 56 | 1.7 | 0.0 | 0.00 | 0.00 | 0.00 | 49 | 1016.0 |
| 20260906005803 | 65 | 56 | 1.7 | 0.0 | 0.00 | 0.00 | 0.00 | 49 | 1016.0 |
| 20260906005603 | 65 | 56 | 1.7 | 0.0 | 0.00 | 0.00 | 0.00 | 49 | 1016.0 |
| 20260906005402 | 65 | 56 | 1.7 | 0.0 | 0.00 | 0.00 | 0.00 | 49 | 1016.0 |
| 20260906005202 | 65 | 56 | 1.7 | 0.0 | 0.00 | 0.00 | 0.00 | 49 | 1016.0 |
| 20260906005002 | 65 | 56 | 1.7 | 0.0 | 0.00 | 0.00 | 0.00 | 49 | 1016.0 |
| 20260906004802 | 65 | 56 | 1.7 | 0.0 | 0.00 | 0.00 | 0.00 | 49 | 1016.0 |
| 20260906004602 | 65 | 56 | 1.7 | 0.0 | 0.00 | 0.00 | 0.00 | 49 | 1016.0 |
| 20260906004403 | 65 | 56 | 1.7 | 0.0 | 0.00 | 0.00 | 0.00 | 49 | 1016.0 |
| 20260906004203 | 65 | 56 | 1.7 | 0.0 | 0.00 | 0.00 | 0.00 | 49 | 1016.0 |
| 20260906004003 | 65 | 56 | 1.7 | 0.0 | 0.00 | 0.00 | 0.00 | 49 | 1016.0 |
| 20260906003802 | 65 | 56 | 1.7 | 0.0 | 0.00 | 0.00 | 0.00 | 49 | 1016.0 |
| 20260906003602 | 65 | 56 | 1.7 | 0.0 | 0.00 | 0.00 | 0.00 | 49 | 1016.0 |
| 20260906003402 | 65 | 56 | 1.7 | 0.0 | 0.00 | 0.00 | 0.00 | 49 | 1016.0 |
| 20260906003202 | 65 | 76 | 0.9 | 0.0 | 0.00 | 0.00 | 0.00 | 49 | 1016.0 |
| 20260906003002 | 65 | 76 | 0.9 | 0.0 | 0.00 | 0.00 | 0.00 | 49 | 1016.0 |
| 20260906002802 | 65 | 76 | 0.9 | 0.0 | 0.00 | 0.00 | 0.00 | 49 | 1016.0 |
| 20260906002603 | 65 | 76 | 0.9 | 0.0 | 0.00 | 0.00 | 0.00 | 49 | 1016.0 |
| 20260906002403 | 65 | 76 | 0.9 | 0.0 | 0.00 | 0.00 | 0.00 | 49 | 1016.0 |
| 20260906002202 | 65 | 76 | 0.9 | 0.0 | 0.00 | 0.00 | 0.00 | 49 | 1016.0 |
| 20260906002002 | 66 | 76 | 1.7 | 0.0 | 0.00 | 0.00 | 0.00 | 49 | 1016.0 |
| 20260906001802 | 66 | 76 | 1.7 | 0.0 | 0.00 | 0.00 | 0.00 | 49 | 1016.0 |
| 20260906001602 | 65 | 76 | 0.9 | 0.0 | 0.00 | 0.00 | 0.00 | 49 | 1016.0 |
| 20260906001402 | 65 | 76 | 0.9 | 0.0 | 0.00 | 0.00 | 0.00 | 49 | 1016.0 |
| 20260906001203 | 65 | 76 | 0.9 | 0.0 | 0.00 | 0.00 | 0.00 | 49 | 1016.0 |
| 20260906001002 | 66 | 76 | 1.7 | 0.0 | 0.00 | 0.00 | 0.00 | 49 | 1016.0 |
| 20260906000802 | 66 | 76 | 1.7 | 0.0 | 0.00 | 0.00 | 0.00 | 49 | 1016.0 |
| 20260906000602 | 66 | 76 | 1.7 | 0.0 | 0.00 | 0.00 | 0.00 | 49 | 1016.0 |
| 20260906000403 | 66 | 76 | 1.7 | 0.0 | 0.00 | 0.00 | 0.00 | 49 | 1016.0 |
| 20260906000204 | 65 | 76 | 0.9 | 0.0 | 0.00 | 0.00 | 0.00 | 48 | 1016.0 |
| 20260906000002 | 65 | 76 | 0.9 | 0.0 | 0.00 | 0.00 | 0.00 | 48 | 1016.0 |
| 20260905235802 | 65 | 76 | 0.9 | 0.0 | 0.00 | 0.00 | 0.00 | 48 | 1016.0 |
| 20260905235603 | 65 | 76 | 0.9 | 0.0 | 0.00 | 0.00 | 0.00 | 48 | 1016.0 |
| 20260905235402 | 65 | 76 | 0.9 | 0.0 | 0.00 | 0.00 | 0.00 | 48 | 1016.0 |
| 20260905235202 | 65 | 76 | 0.9 | 0.0 | 0.00 | 0.00 | 0.00 | 48 | 1016.0 |
| 20260905235003 | 66 | 76 | 1.7 | 0.0 | 0.00 | 0.00 | 0.00 | 48 | 1016.0 |
| 20260905234802 | 66 | 76 | 1.7 | 0.0 | 0.00 | 0.00 | 0.00 | 48 | 1016.0 |
| 20260905234602 | 65 | 94 | 0.9 | 0.0 | 0.00 | 0.00 | 0.00 | 48 | 1016.0 |
| 20260905234402 | 65 | 94 | 0.9 | 0.0 | 0.00 | 0.00 | 0.00 | 48 | 1016.0 |
| 20260905234202 | 65 | 94 | 0.9 | 0.0 | 0.00 | 0.00 | 0.00 | 48 | 1016.0 |
| 20260905234003 | 65 | 94 | 0.9 | 0.0 | 0.00 | 0.00 | 0.00 | 48 | 1016.0 |
| 20260905233803 | 65 | 94 | 0.9 | 0.0 | 0.00 | 0.00 | 0.00 | 48 | 1016.0 |
| 20260905233602 | 65 | 94 | 0.9 | 0.0 | 0.00 | 0.00 | 0.00 | 48 | 1016.0 |
| 20260905233402 | 66 | 94 | 0.9 | 0.0 | 0.00 | 0.00 | 0.00 | 48 | 1016.0 |
| 20260905233202 | 66 | 94 | 0.9 | 0.0 | 0.00 | 0.00 | 0.00 | 48 | 1016.0 |
| 20260905233002 | 66 | 94 | 0.9 | 0.0 | 0.00 | 0.00 | 0.00 | 48 | 1016.0 |
| 20260905232802 | 66 | 94 | 0.9 | 0.0 | 0.00 | 0.00 | 0.00 | 48 | 1016.0 |
| 20260905232602 | 66 | 94 | 0.9 | 0.0 | 0.00 | 0.00 | 0.00 | 48 | 1016.0 |
| 20260905232403 | 66 | 94 | 0.9 | 0.0 | 0.00 | 0.00 | 0.00 | 48 | 1016.0 |
| 20260905232203 | 67 | 94 | 1.7 | 0.0 | 0.00 | 0.00 | 0.00 | 48 | 1016.0 |
| 20260905232003 | 67 | 94 | 1.7 | 0.0 | 0.00 | 0.00 | 0.00 | 48 | 1016.0 |
| 20260905231802 | 68 | 94 | 2.6 | 0.0 | 0.00 | 0.00 | 0.00 | 48 | 1016.0 |
| 20260905231602 | 68 | 94 | 2.6 | 0.0 | 0.00 | 0.00 | 0.00 | 48 | 1016.0 |
| 20260905231402 | 68 | 94 | 2.6 | 0.0 | 0.00 | 0.00 | 0.00 | 48 | 1016.0 |
| 20260905231202 | 68 | 94 | 2.6 | 0.0 | 0.00 | 0.00 | 0.00 | 48 | 1016.0 |
| 20260905231003 | 66 | 94 | 0.9 | 0.0 | 0.00 | 0.00 | 0.00 | 47 | 1016.0 |
| 20260905230803 | 66 | 94 | 0.9 | 0.0 | 0.00 | 0.00 | 0.00 | 47 | 1016.0 |
| 20260905230603 | 66 | 94 | 0.9 | 0.0 | 0.00 | 0.00 | 0.00 | 47 | 1016.0 |
| 20260905230402 | 66 | 94 | 0.9 | 0.0 | 0.00 | 0.00 | 0.00 | 47 | 1016.0 |
| 20260905230202 | 66 | 94 | 0.9 | 0.0 | 0.00 | 0.00 | 0.00 | 47 | 1016.0 |
| 20260905230002 | 67 | 94 | 1.7 | 0.0 | 0.00 | 0.00 | 0.00 | 47 | 1016.0 |
| 20260905225802 | 67 | 94 | 1.7 | 0.0 | 0.00 | 0.00 | 0.00 | 47 | 1016.0 |
| 20260905225603 | 67 | 94 | 1.7 | 0.0 | 0.00 | 0.00 | 0.00 | 47 | 1016.0 |
| 20260905225403 | 67 | 94 | 1.7 | 0.0 | 0.00 | 0.00 | 0.00 | 47 | 1016.0 |
| 20260905225203 | 67 | 94 | 1.7 | 0.0 | 0.00 | 0.00 | 0.00 | 47 | 1016.0 |
| 20260905225002 | 67 | 94 | 1.7 | 0.0 | 0.00 | 0.00 | 0.00 | 47 | 1016.0 |
| 20260905224802 | 68 | 94 | 2.6 | 0.0 | 0.00 | 0.00 | 0.00 | 47 | 1016.0 |
| 20260905224602 | 67 | 92 | 3.5 | 0.0 | 0.00 | 0.00 | 0.00 | 48 | 1016.0 |
| 20260905224402 | 66 | 92 | 3.5 | 0.0 | 0.00 | 0.00 | 0.00 | 48 | 1016.0 |
| 20260905224202 | 66 | 92 | 3.5 | 0.0 | 0.00 | 0.00 | 0.00 | 48 | 1016.0 |
| 20260905224002 | 67 | 92 | 3.5 | 0.0 | 0.00 | 0.00 | 0.00 | 48 | 1016.0 |
| 20260905223803 | 67 | 92 | 3.5 | 0.0 | 0.00 | 0.00 | 0.00 | 48 | 1016.0 |
| 20260905223603 | 67 | 92 | 3.5 | 0.0 | 0.00 | 0.00 | 0.00 | 48 | 1016.0 |
| 20260905223403 | 68 | 92 | 3.5 | 0.0 | 0.00 | 0.00 | 0.00 | 48 | 1016.0 |
| 20260905223202 | 68 | 92 | 3.5 | 0.0 | 0.00 | 0.00 | 0.00 | 48 | 1016.0 |
| 20260905223002 | 68 | 92 | 3.5 | 0.0 | 0.00 | 0.00 | 0.00 | 48 | 1016.0 |
| 20260905222802 | 68 | 92 | 3.5 | 0.0 | 0.00 | 0.00 | 0.00 | 48 | 1016.0 |
| 20260905222602 | 68 | 92 | 3.5 | 0.0 | 0.00 | 0.00 | 0.00 | 48 | 1016.0 |
| 20260905222402 | 67 | 92 | 3.5 | 0.0 | 0.00 | 0.00 | 0.00 | 46 | 1017.0 |
| 20260905222203 | 67 | 92 | 3.5 | 0.0 | 0.00 | 0.00 | 0.00 | 46 | 1017.0 |
| 20260905222003 | 67 | 92 | 3.5 | 0.0 | 0.00 | 0.00 | 0.00 | 46 | 1017.0 |
| 20260905221803 | 67 | 92 | 3.5 | 0.0 | 0.00 | 0.00 | 0.00 | 46 | 1017.0 |
| 20260905221602 | 67 | 92 | 3.5 | 0.0 | 0.00 | 0.00 | 0.00 | 46 | 1017.0 |
| 20260905221402 | 68 | 92 | 3.5 | 0.0 | 0.00 | 0.00 | 0.00 | 46 | 1017.0 |
| 20260905221202 | 67 | 92 | 3.5 | 0.0 | 0.00 | 0.00 | 0.00 | 43 | 1017.0 |
| 20260905221002 | 67 | 92 | 3.5 | 0.0 | 0.00 | 0.00 | 0.00 | 43 | 1017.0 |
| 20260905220802 | 67 | 92 | 3.5 | 0.0 | 0.00 | 0.00 | 0.00 | 43 | 1017.0 |
| 20260905220603 | 67 | 92 | 3.5 | 0.0 | 0.00 | 0.00 | 0.00 | 43 | 1017.0 |
| 20260905220402 | 67 | 92 | 3.5 | 0.0 | 0.00 | 0.00 | 0.00 | 43 | 1017.0 |
| 20260905220202 | 68 | 92 | 3.5 | 0.0 | 0.00 | 0.00 | 0.00 | 43 | 1016.0 |
| 20260905220002 | 68 | 92 | 3.5 | 0.0 | 0.00 | 0.00 | 0.00 | 43 | 1016.0 |
| 20260905215802 | 68 | 92 | 3.5 | 0.0 | 0.00 | 0.00 | 0.00 | 43 | 1016.0 |
| 20260905215602 | 68 | 92 | 3.5 | 0.0 | 0.00 | 0.00 | 0.00 | 43 | 1016.0 |
| 20260905215402 | 68 | 92 | 3.5 | 0.0 | 0.00 | 0.00 | 0.00 | 43 | 1016.0 |
| 20260905215203 | 67 | 106 | 4.3 | 0.0 | 0.00 | 0.00 | 0.00 | 41 | 1016.0 |
| 20260905215003 | 67 | 106 | 4.3 | 0.0 | 0.00 | 0.00 | 0.00 | 41 | 1016.0 |
| 20260905214802 | 68 | 106 | 4.3 | 0.0 | 0.00 | 0.00 | 0.00 | 41 | 1016.0 |
| 20260905214602 | 68 | 106 | 4.3 | 0.0 | 0.00 | 0.00 | 0.00 | 41 | 1016.0 |
| 20260905214402 | 68 | 106 | 4.3 | 0.0 | 0.00 | 0.00 | 0.00 | 41 | 1016.0 |
| 20260905214202 | 68 | 106 | 4.3 | 0.0 | 0.00 | 0.00 | 0.00 | 41 | 1016.0 |
| 20260905214002 | 69 | 106 | 4.3 | 0.0 | 0.00 | 0.00 | 0.00 | 41 | 1016.0 |
| 20260905213802 | 69 | 106 | 4.3 | 0.0 | 0.00 | 0.00 | 0.00 | 41 | 1016.0 |
| 20260905213603 | 69 | 106 | 4.3 | 0.0 | 0.00 | 0.00 | 0.00 | 41 | 1016.0 |
| 20260905213402 | 69 | 106 | 4.3 | 0.0 | 0.00 | 0.00 | 0.00 | 41 | 1016.0 |
| 20260905213202 | 69 | 106 | 4.3 | 0.0 | 0.00 | 0.00 | 0.00 | 41 | 1016.0 |
| 20260905213002 | 69 | 106 | 4.3 | 0.0 | 0.00 | 0.00 | 0.00 | 41 | 1016.0 |
| 20260905212802 | 70 | 106 | 4.3 | 0.0 | 0.00 | 0.00 | 0.00 | 41 | 1016.0 |
| 20260905212602 | 70 | 106 | 4.3 | 0.0 | 0.00 | 0.00 | 0.00 | 41 | 1016.0 |
| 20260905212402 | 70 | 106 | 4.3 | 0.0 | 0.00 | 0.00 | 0.00 | 41 | 1016.0 |
| 20260905212202 | 70 | 106 | 4.3 | 0.0 | 0.00 | 0.00 | 0.00 | 41 | 1016.0 |
| 20260905212003 | 70 | 106 | 4.3 | 0.0 | 0.00 | 0.00 | 0.00 | 41 | 1016.0 |
| 20260905211802 | 70 | 106 | 4.3 | 0.0 | 0.00 | 0.00 | 0.00 | 41 | 1016.0 |
| 20260905211602 | 69 | 106 | 4.3 | 0.0 | 0.00 | 0.00 | 0.00 | 40 | 1016.0 |
| 20260905211402 | 69 | 106 | 4.3 | 0.0 | 0.00 | 0.00 | 0.00 | 40 | 1016.0 |
| 20260905211202 | 70 | 106 | 4.3 | 0.0 | 0.00 | 0.00 | 0.00 | 40 | 1016.0 |
| 20260905211002 | 70 | 106 | 4.3 | 0.0 | 0.00 | 0.00 | 0.00 | 40 | 1016.0 |
| 20260905210802 | 70 | 106 | 4.3 | 0.0 | 0.00 | 0.00 | 0.00 | 40 | 1016.0 |
| 20260905210603 | 70 | 106 | 4.3 | 0.0 | 0.00 | 0.00 | 0.00 | 40 | 1016.0 |
| 20260905210403 | 70 | 106 | 4.3 | 0.0 | 0.00 | 0.00 | 0.00 | 40 | 1016.0 |
| 20260905210203 | 70 | 106 | 4.3 | 0.0 | 0.00 | 0.00 | 0.00 | 40 | 1016.0 |
| 20260905210002 | 69 | 106 | 4.3 | 0.0 | 0.00 | 0.00 | 0.00 | 39 | 1016.0 |
| 20260905205802 | 69 | 106 | 4.3 | 0.0 | 0.00 | 0.00 | 0.00 | 39 | 1016.0 |
| 20260905205602 | 69 | 106 | 4.3 | 0.0 | 0.00 | 0.00 | 0.00 | 39 | 1016.0 |
| 20260905205402 | 69 | 106 | 4.3 | 0.0 | 0.00 | 0.00 | 0.00 | 39 | 1016.0 |
| 20260905205202 | 69 | 106 | 4.3 | 0.0 | 0.00 | 0.00 | 0.00 | 39 | 1016.0 |
| 20260905205003 | 69 | 106 | 4.3 | 0.0 | 0.00 | 0.00 | 0.00 | 39 | 1016.0 |
| 20260905204803 | 70 | 106 | 4.3 | 0.0 | 0.00 | 0.00 | 0.00 | 39 | 1016.0 |
| 20260905204603 | 70 | 106 | 4.3 | 0.0 | 0.00 | 0.00 | 0.00 | 39 | 1016.0 |
| 20260905204403 | 70 | 106 | 4.3 | 0.0 | 0.00 | 0.00 | 0.00 | 39 | 1016.0 |
| 20260905204202 | 70 | 106 | 4.3 | 0.0 | 0.00 | 0.00 | 0.00 | 39 | 1016.0 |
| 20260905204002 | 69 | 115 | 4.3 | 0.0 | 0.00 | 0.00 | 0.00 | 36 | 1016.0 |
| 20260905203802 | 70 | 115 | 4.3 | 0.0 | 0.00 | 0.00 | 0.00 | 36 | 1016.0 |
| 20260905203602 | 70 | 115 | 4.3 | 0.0 | 0.00 | 0.00 | 0.00 | 36 | 1016.0 |
| 20260905203403 | 70 | 115 | 4.3 | 0.0 | 0.00 | 0.00 | 0.00 | 36 | 1016.0 |
| 20260905203203 | 70 | 115 | 4.3 | 0.0 | 0.00 | 0.00 | 0.00 | 36 | 1016.0 |
| 20260905203002 | 71 | 115 | 5.2 | 0.0 | 0.00 | 0.00 | 0.00 | 36 | 1016.0 |
| 20260905202802 | 71 | 115 | 5.2 | 0.0 | 0.00 | 0.00 | 0.00 | 36 | 1016.0 |
| 20260905202602 | 71 | 115 | 5.2 | 0.0 | 0.00 | 0.00 | 0.00 | 36 | 1016.0 |
| 20260905202402 | 71 | 115 | 5.2 | 0.0 | 0.00 | 0.00 | 0.00 | 36 | 1016.0 |
| 20260905202202 | 71 | 115 | 5.2 | 0.0 | 0.00 | 0.00 | 0.00 | 36 | 1016.0 |
| 20260905202002 | 70 | 115 | 4.3 | 0.0 | 0.00 | 0.00 | 0.00 | 34 | 1016.0 |
| 20260905201802 | 70 | 115 | 4.3 | 0.0 | 0.00 | 0.00 | 0.00 | 34 | 1016.0 |
| 20260905201603 | 70 | 115 | 4.3 | 0.0 | 0.00 | 0.00 | 0.00 | 34 | 1016.0 |
| 20260905201403 | 70 | 115 | 4.3 | 0.0 | 0.00 | 0.00 | 0.00 | 34 | 1016.0 |
| 20260905201202 | 70 | 115 | 4.3 | 0.0 | 0.00 | 0.00 | 0.00 | 34 | 1016.0 |
| 20260905201002 | 70 | 115 | 4.3 | 0.0 | 0.00 | 0.00 | 0.00 | 34 | 1016.0 |
| 20260905200802 | 71 | 115 | 5.2 | 0.0 | 0.00 | 0.00 | 0.00 | 34 | 1016.0 |
| 20260905200602 | 70 | 115 | 4.3 | 0.0 | 0.00 | 0.00 | 0.00 | 34 | 1016.0 |
| 20260905200402 | 71 | 115 | 5.2 | 0.0 | 0.00 | 0.00 | 0.00 | 34 | 1016.0 |
| 20260905200203 | 71 | 115 | 5.2 | 0.0 | 0.00 | 0.00 | 0.00 | 34 | 1016.0 |
| 20260905200003 | 71 | 115 | 5.2 | 0.0 | 0.00 | 0.00 | 0.00 | 34 | 1016.0 |
| 20260905195803 | 71 | 115 | 5.2 | 0.0 | 0.00 | 0.00 | 0.00 | 34 | 1016.0 |
| 20260905195602 | 70 | 112 | 6.1 | 0.0 | 0.00 | 0.00 | 0.00 | 30 | 1016.0 |
| 20260905195402 | 70 | 112 | 6.1 | 0.0 | 0.00 | 0.00 | 0.00 | 30 | 1016.0 |
| 20260905195202 | 70 | 112 | 6.1 | 0.0 | 0.00 | 0.00 | 0.00 | 30 | 1016.0 |
| 20260905195002 | 70 | 112 | 6.1 | 0.0 | 0.00 | 0.00 | 0.00 | 30 | 1016.0 |
| 20260905194802 | 70 | 112 | 6.1 | 0.0 | 0.00 | 0.00 | 0.00 | 30 | 1016.0 |
| 20260905194603 | 70 | 112 | 6.1 | 0.0 | 0.00 | 0.00 | 0.00 | 30 | 1016.0 |
| 20260905194403 | 71 | 112 | 6.1 | 0.0 | 0.00 | 0.00 | 0.00 | 30 | 1016.0 |
| 20260905194202 | 71 | 112 | 6.1 | 0.0 | 0.00 | 0.00 | 0.00 | 30 | 1016.0 |
| 20260905194002 | 71 | 112 | 6.1 | 0.0 | 0.00 | 0.00 | 0.00 | 30 | 1016.0 |
| 20260905193802 | 72 | 112 | 6.1 | 0.0 | 0.00 | 0.00 | 0.00 | 30 | 1016.0 |
| 20260905193602 | 72 | 112 | 6.1 | 0.0 | 0.00 | 0.00 | 0.00 | 30 | 1016.0 |
| 20260905193402 | 72 | 112 | 6.1 | 0.0 | 0.00 | 0.00 | 0.00 | 30 | 1016.0 |
| 20260905193202 | 72 | 112 | 6.1 | 0.0 | 0.00 | 0.00 | 0.00 | 30 | 1016.0 |
| 20260905193003 | 72 | 112 | 6.1 | 0.0 | 0.00 | 0.00 | 0.00 | 30 | 1016.0 |
| 20260905192803 | 72 | 112 | 6.1 | 0.0 | 0.00 | 0.00 | 0.00 | 30 | 1016.0 |
| 20260905192603 | 73 | 112 | 6.1 | 0.0 | 0.00 | 0.00 | 0.00 | 30 | 1016.0 |
| 20260905192403 | 73 | 112 | 6.1 | 0.0 | 0.00 | 0.00 | 0.00 | 30 | 1016.0 |
| 20260905192202 | 73 | 112 | 6.1 | 0.0 | 0.00 | 0.00 | 0.00 | 30 | 1016.0 |
| 20260905192002 | 73 | 112 | 6.1 | 0.0 | 0.00 | 0.00 | 0.00 | 30 | 1016.0 |
| 20260905191802 | 73 | 112 | 6.1 | 0.0 | 0.00 | 0.00 | 0.00 | 30 | 1016.0 |
| 20260905191602 | 74 | 112 | 6.1 | 0.0 | 0.00 | 0.00 | 0.00 | 30 | 1016.0 |
| 20260905191403 | 74 | 112 | 6.1 | 0.0 | 0.00 | 0.00 | 0.00 | 30 | 1016.0 |
| 20260905191203 | 74 | 112 | 6.1 | 0.0 | 0.00 | 0.00 | 0.00 | 30 | 1016.0 |
| 20260905191003 | 74 | 112 | 6.1 | 0.0 | 0.00 | 0.00 | 0.00 | 30 | 1016.0 |
| 20260905190802 | 72 | 48 | 3.5 | 0.0 | 0.00 | 0.00 | 0.00 | 25 | 1016.0 |
| 20260905190603 | 72 | 48 | 3.5 | 0.0 | 0.00 | 0.00 | 0.00 | 25 | 1016.0 |
| 20260905190402 | 72 | 48 | 3.5 | 0.0 | 0.00 | 0.00 | 0.00 | 25 | 1016.0 |
| 20260905190202 | 72 | 48 | 3.5 | 0.0 | 0.00 | 0.00 | 0.00 | 25 | 1016.0 |
| 20260905190002 | 72 | 48 | 3.5 | 0.0 | 0.00 | 0.00 | 0.00 | 25 | 1016.0 |
| 20260905185803 | 72 | 48 | 3.5 | 0.0 | 0.00 | 0.00 | 0.00 | 25 | 1016.0 |
| 20260905185603 | 73 | 48 | 3.5 | 0.0 | 0.00 | 0.00 | 0.00 | 25 | 1016.0 |
| 20260905185402 | 73 | 48 | 3.5 | 0.0 | 0.00 | 0.00 | 0.00 | 25 | 1016.0 |
| 20260905185202 | 72 | 48 | 3.5 | 0.0 | 0.00 | 0.00 | 0.00 | 25 | 1016.0 |
| 20260905185002 | 73 | 48 | 3.5 | 0.0 | 0.00 | 0.00 | 0.00 | 25 | 1016.0 |
| 20260905184802 | 74 | 48 | 3.5 | 0.0 | 0.00 | 0.00 | 0.00 | 25 | 1016.0 |
| 20260905184602 | 74 | 48 | 3.5 | 0.0 | 0.00 | 0.00 | 0.00 | 25 | 1016.0 |
| 20260905184402 | 74 | 48 | 3.5 | 0.0 | 0.00 | 0.00 | 0.00 | 25 | 1016.0 |
| 20260905184203 | 74 | 48 | 3.5 | 0.0 | 0.00 | 0.00 | 0.00 | 25 | 1016.0 |
| 20260905184002 | 74 | 48 | 3.5 | 0.0 | 0.00 | 0.00 | 0.00 | 25 | 1016.0 |
| 20260905183802 | 74 | 48 | 3.5 | 0.0 | 0.00 | 0.00 | 0.00 | 25 | 1016.0 |
| 20260905183602 | 75 | 48 | 3.5 | 0.0 | 0.00 | 0.00 | 0.00 | 25 | 1015.0 |
| 20260905183402 | 75 | 48 | 3.5 | 0.0 | 0.00 | 0.00 | 0.00 | 25 | 1015.0 |
| 20260905183202 | 75 | 48 | 3.5 | 0.0 | 0.00 | 0.00 | 0.00 | 25 | 1015.0 |
| 20260905183002 | 75 | 48 | 3.5 | 0.0 | 0.00 | 0.00 | 0.00 | 25 | 1015.0 |
| 20260905182802 | 75 | 48 | 3.5 | 0.0 | 0.00 | 0.00 | 0.00 | 25 | 1015.0 |
| 20260905182603 | 76 | 48 | 3.5 | 0.0 | 0.00 | 0.00 | 0.00 | 25 | 1015.0 |
| 20260905182403 | 76 | 48 | 3.5 | 0.0 | 0.00 | 0.00 | 0.00 | 25 | 1015.0 |
| 20260905182202 | 76 | 48 | 3.5 | 0.0 | 0.00 | 0.00 | 0.00 | 25 | 1015.0 |
| 20260905182003 | 76 | 48 | 3.5 | 0.0 | 0.00 | 0.00 | 0.00 | 25 | 1015.0 |
| 20260905181802 | 76 | 48 | 3.5 | 0.0 | 0.00 | 0.00 | 0.00 | 25 | 1015.0 |
| 20260905181602 | 76 | 48 | 3.5 | 0.0 | 0.00 | 0.00 | 0.00 | 25 | 1015.0 |
| 20260905181402 | 77 | 48 | 3.5 | 0.0 | 0.00 | 0.00 | 0.00 | 25 | 1015.0 |
| 20260905181202 | 77 | 48 | 3.5 | 0.0 | 0.00 | 0.00 | 0.00 | 25 | 1015.0 |
| 20260905181003 | 77 | 48 | 3.5 | 0.0 | 0.00 | 0.00 | 0.00 | 25 | 1015.0 |
| 20260905180803 | 77 | 48 | 3.5 | 0.0 | 0.00 | 0.00 | 0.00 | 25 | 1015.0 |
| 20260905180602 | 77 | 48 | 3.5 | 0.0 | 0.00 | 0.00 | 0.00 | 25 | 1015.0 |
| 20260905180402 | 77 | 48 | 3.5 | 0.0 | 0.00 | 0.00 | 0.00 | 25 | 1015.0 |
| 20260905180202 | 78 | 48 | 3.5 | 0.0 | 0.00 | 0.00 | 0.00 | 25 | 1015.0 |
| 20260905180002 | 78 | 48 | 3.5 | 0.0 | 0.00 | 0.00 | 0.00 | 25 | 1015.0 |
| 20260905175802 | 78 | 48 | 3.5 | 0.0 | 0.00 | 0.00 | 0.00 | 25 | 1015.0 |
| 20260905175602 | 78 | 48 | 3.5 | 0.0 | 0.00 | 0.00 | 0.00 | 25 | 1015.0 |
| 20260905175403 | 78 | 48 | 3.5 | 0.0 | 0.00 | 0.00 | 0.00 | 25 | 1015.0 |
| 20260905175203 | 79 | 48 | 3.5 | 0.0 | 0.00 | 0.00 | 0.00 | 25 | 1015.0 |
| 20260905175002 | 79 | 48 | 3.5 | 0.0 | 0.00 | 0.00 | 0.00 | 25 | 1015.0 |
| 20260905174802 | 79 | 48 | 3.5 | 0.0 | 0.00 | 0.00 | 0.00 | 25 | 1015.0 |
| 20260905174602 | 79 | 48 | 3.5 | 0.0 | 0.00 | 0.00 | 0.00 | 25 | 1015.0 |
| 20260905174402 | 79 | 48 | 3.5 | 0.0 | 0.00 | 0.00 | 0.00 | 25 | 1015.0 |
| 20260905174202 | 80 | 48 | 3.5 | 0.0 | 0.00 | 0.00 | 0.00 | 25 | 1015.0 |
| 20260905174003 | 80 | 48 | 3.5 | 0.0 | 0.00 | 0.00 | 0.00 | 25 | 1015.0 |
| 20260905173803 | 81 | 48 | 3.5 | 0.0 | 0.00 | 0.00 | 0.00 | 25 | 1014.0 |
| 20260905173602 | 81 | 48 | 3.5 | 0.0 | 0.00 | 0.00 | 0.00 | 25 | 1014.0 |
| 20260905173402 | 81 | 48 | 3.5 | 0.0 | 0.00 | 0.00 | 0.00 | 25 | 1014.0 |
| 20260905173202 | 81 | 48 | 3.5 | 0.0 | 0.00 | 0.00 | 0.00 | 25 | 1014.0 |
| 20260905173002 | 81 | 48 | 3.5 | 0.0 | 0.00 | 0.00 | 0.00 | 25 | 1014.0 |
| 20260905172802 | 81 | 48 | 3.5 | 0.0 | 0.00 | 0.00 | 0.00 | 25 | 1014.0 |
| 20260905172602 | 79 | 353 | 4.3 | 0.0 | 0.00 | 0.00 | 0.00 | 23 | 1014.0 |
| 20260905172403 | 79 | 353 | 4.3 | 0.0 | 0.00 | 0.00 | 0.00 | 23 | 1014.0 |
| 20260905172203 | 79 | 353 | 4.3 | 0.0 | 0.00 | 0.00 | 0.00 | 23 | 1014.0 |
| 20260905172003 | 79 | 353 | 4.3 | 0.0 | 0.00 | 0.00 | 0.00 | 23 | 1014.0 |
| 20260905171802 | 80 | 353 | 4.3 | 0.0 | 0.00 | 0.00 | 0.00 | 23 | 1014.0 |
| 20260905171602 | 80 | 353 | 4.3 | 0.0 | 0.00 | 0.00 | 0.00 | 23 | 1014.0 |
| 20260905171402 | 80 | 353 | 4.3 | 0.0 | 0.00 | 0.00 | 0.00 | 23 | 1014.0 |
| 20260905171202 | 81 | 353 | 4.3 | 0.0 | 0.00 | 0.00 | 0.00 | 23 | 1014.0 |
| 20260905171002 | 81 | 353 | 4.3 | 0.0 | 0.00 | 0.00 | 0.00 | 23 | 1014.0 |
| 20260905170803 | 81 | 353 | 4.3 | 0.0 | 0.00 | 0.00 | 0.00 | 23 | 1014.0 |
| 20260905170602 | 81 | 353 | 4.3 | 0.0 | 0.00 | 0.00 | 0.00 | 23 | 1014.0 |
| 20260905170402 | 82 | 353 | 4.3 | 0.0 | 0.00 | 0.00 | 0.00 | 23 | 1014.0 |
| 20260905170202 | 82 | 353 | 4.3 | 0.0 | 0.00 | 0.00 | 0.00 | 23 | 1014.0 |
| 20260905170002 | 82 | 353 | 4.3 | 0.0 | 0.00 | 0.00 | 0.00 | 23 | 1014.0 |
| 20260905165802 | 82 | 353 | 4.3 | 0.0 | 0.00 | 0.00 | 0.00 | 23 | 1014.0 |
| 20260905165602 | 82 | 353 | 4.3 | 0.0 | 0.00 | 0.00 | 0.00 | 23 | 1014.0 |
| 20260905165402 | 83 | 353 | 4.3 | 0.0 | 0.00 | 0.00 | 0.00 | 23 | 1014.0 |
| 20260905165203 | 83 | 353 | 4.3 | 0.0 | 0.00 | 0.00 | 0.00 | 23 | 1014.0 |
| 20260905165003 | 84 | 353 | 4.3 | 0.0 | 0.00 | 0.00 | 0.00 | 23 | 1014.0 |
| 20260905164802 | 84 | 353 | 4.3 | 0.0 | 0.00 | 0.00 | 0.00 | 23 | 1014.0 |
| 20260905164602 | 84 | 353 | 4.3 | 0.0 | 0.00 | 0.00 | 0.00 | 23 | 1014.0 |
| 20260905164402 | 84 | 353 | 4.3 | 0.0 | 0.00 | 0.00 | 0.00 | 23 | 1014.0 |
| 20260905164202 | 84 | 353 | 4.3 | 0.0 | 0.00 | 0.00 | 0.00 | 23 | 1014.0 |
| 20260905164002 | 84 | 353 | 4.3 | 0.0 | 0.00 | 0.00 | 0.00 | 23 | 1014.0 |
| 20260905163803 | 85 | 353 | 4.3 | 0.0 | 0.00 | 0.00 | 0.00 | 23 | 1014.0 |
| 20260905163603 | 85 | 353 | 4.3 | 0.0 | 0.00 | 0.00 | 0.00 | 23 | 1014.0 |
| 20260905163402 | 85 | 353 | 4.3 | 0.0 | 0.00 | 0.00 | 0.00 | 23 | 1014.0 |
| 20260905163202 | 85 | 353 | 4.3 | 0.0 | 0.00 | 0.00 | 0.00 | 23 | 1014.0 |
| 20260905163002 | 85 | 353 | 4.3 | 0.0 | 0.00 | 0.00 | 0.00 | 23 | 1014.0 |
| 20260905162802 | 85 | 353 | 4.3 | 0.0 | 0.00 | 0.00 | 0.00 | 23 | 1014.0 |
| 20260905162602 | 85 | 353 | 4.3 | 0.0 | 0.00 | 0.00 | 0.00 | 23 | 1014.0 |
| 20260905162402 | 86 | 353 | 4.3 | 0.0 | 0.00 | 0.00 | 0.00 | 23 | 1014.0 |
| 20260905162203 | 86 | 353 | 4.3 | 0.0 | 0.00 | 0.00 | 0.00 | 23 | 1014.0 |
| 20260905162003 | 86 | 353 | 4.3 | 0.0 | 0.00 | 0.00 | 0.00 | 23 | 1014.0 |
| 20260905161802 | 86 | 353 | 4.3 | 0.0 | 0.00 | 0.00 | 0.00 | 23 | 1014.0 |
| 20260905161602 | 86 | 353 | 4.3 | 0.0 | 0.00 | 0.00 | 0.00 | 23 | 1014.0 |
| 20260905161402 | 85 | 10 | 4.3 | 0.0 | 0.00 | 0.00 | 0.00 | 22 | 1014.0 |
| 20260905161202 | 85 | 10 | 4.3 | 0.0 | 0.00 | 0.00 | 0.00 | 22 | 1014.0 |
| 20260905161002 | 85 | 10 | 4.3 | 0.0 | 0.00 | 0.00 | 0.00 | 22 | 1014.0 |
| 20260905160802 | 85 | 10 | 4.3 | 0.0 | 0.00 | 0.00 | 0.00 | 22 | 1014.0 |
| 20260905160603 | 85 | 10 | 4.3 | 0.0 | 0.00 | 0.00 | 0.00 | 22 | 1014.0 |
| 20260905160402 | 85 | 10 | 4.3 | 0.0 | 0.00 | 0.00 | 0.00 | 22 | 1014.0 |
| 20260905160202 | 86 | 10 | 4.3 | 0.0 | 0.00 | 0.00 | 0.00 | 22 | 1014.0 |
| 20260905160002 | 86 | 10 | 4.3 | 0.0 | 0.00 | 0.00 | 0.00 | 22 | 1014.0 |
| 20260905155802 | 86 | 10 | 4.3 | 0.0 | 0.00 | 0.00 | 0.00 | 22 | 1014.0 |
| 20260905155602 | 86 | 10 | 4.3 | 0.0 | 0.00 | 0.00 | 0.00 | 22 | 1014.0 |
| 20260905155403 | 86 | 10 | 4.3 | 0.0 | 0.00 | 0.00 | 0.00 | 22 | 1014.0 |
| 20260905155202 | 87 | 10 | 4.3 | 0.0 | 0.00 | 0.00 | 0.00 | 22 | 1014.0 |
| 20260905155003 | 87 | 10 | 4.3 | 0.0 | 0.00 | 0.00 | 0.00 | 22 | 1014.0 |
| 20260905154803 | 87 | 10 | 4.3 | 0.0 | 0.00 | 0.00 | 0.00 | 22 | 1014.0 |
| 20260905154602 | 88 | 10 | 4.3 | 0.0 | 0.00 | 0.00 | 0.00 | 22 | 1014.0 |
| 20260905154402 | 88 | 10 | 4.3 | 0.0 | 0.00 | 0.00 | 0.00 | 22 | 1014.0 |
| 20260905154202 | 88 | 10 | 4.3 | 0.0 | 0.00 | 0.00 | 0.00 | 22 | 1014.0 |
| 20260905154002 | 88 | 10 | 4.3 | 0.0 | 0.00 | 0.00 | 0.00 | 22 | 1014.0 |
| 20260905153802 | 88 | 10 | 4.3 | 0.0 | 0.00 | 0.00 | 0.00 | 22 | 1014.0 |
| 20260905153602 | 89 | 10 | 4.3 | 0.0 | 0.00 | 0.00 | 0.00 | 22 | 1014.0 |
| 20260905153403 | 89 | 10 | 4.3 | 0.0 | 0.00 | 0.00 | 0.00 | 22 | 1014.0 |
| 20260905153203 | 89 | 10 | 4.3 | 0.0 | 0.00 | 0.00 | 0.00 | 22 | 1014.0 |
| 20260905153002 | 89 | 10 | 4.3 | 0.0 | 0.00 | 0.00 | 0.00 | 22 | 1014.0 |
| 20260905152802 | 89 | 10 | 4.3 | 0.0 | 0.00 | 0.00 | 0.00 | 22 | 1014.0 |
| 20260905152602 | 89 | 10 | 4.3 | 0.0 | 0.00 | 0.00 | 0.00 | 22 | 1014.0 |
| 20260905152403 | 88 | 10 | 4.3 | 0.0 | 0.00 | 0.00 | 0.00 | 20 | 1014.0 |
| 20260905152202 | 88 | 10 | 4.3 | 0.0 | 0.00 | 0.00 | 0.00 | 20 | 1014.0 |
| 20260905152002 | 88 | 10 | 4.3 | 0.0 | 0.00 | 0.00 | 0.00 | 20 | 1014.0 |
| 20260905151804 | 88 | 10 | 4.3 | 0.0 | 0.00 | 0.00 | 0.00 | 20 | 1014.0 |
| 20260905151602 | 88 | 10 | 4.3 | 0.0 | 0.00 | 0.00 | 0.00 | 20 | 1014.0 |
| 20260905151402 | 89 | 10 | 4.3 | 0.0 | 0.00 | 0.00 | 0.00 | 20 | 1014.0 |
| 20260905151202 | 89 | 10 | 4.3 | 0.0 | 0.00 | 0.00 | 0.00 | 20 | 1014.0 |
| 20260905151002 | 89 | 10 | 4.3 | 0.0 | 0.00 | 0.00 | 0.00 | 20 | 1014.0 |
| 20260905150802 | 89 | 10 | 4.3 | 0.0 | 0.00 | 0.00 | 0.00 | 20 | 1014.0 |
| 20260905150602 | 89 | 10 | 4.3 | 0.0 | 0.00 | 0.00 | 0.00 | 20 | 1014.0 |
| 20260905150403 | 89 | 10 | 4.3 | 0.0 | 0.00 | 0.00 | 0.00 | 20 | 1014.0 |
| 20260905150203 | 90 | 10 | 4.3 | 0.0 | 0.00 | 0.00 | 0.00 | 20 | 1014.0 |
| 20260905150003 | 90 | 10 | 4.3 | 0.0 | 0.00 | 0.00 | 0.00 | 20 | 1014.0 |
| 20260905145802 | 90 | 10 | 4.3 | 0.0 | 0.00 | 0.00 | 0.00 | 20 | 1014.0 |
| 20260905145602 | 90 | 10 | 4.3 | 0.0 | 0.00 | 0.00 | 0.00 | 20 | 1014.0 |
| 20260905145402 | 89 | 10 | 4.3 | 0.0 | 0.00 | 0.00 | 0.00 | 20 | 1014.0 |
| 20260905145202 | 90 | 10 | 4.3 | 0.0 | 0.00 | 0.00 | 0.00 | 20 | 1014.0 |
| 20260905145002 | 88 | 16 | 3.5 | 0.0 | 0.00 | 0.00 | 0.00 | 22 | 1014.0 |
| 20260905144802 | 90 | 10 | 4.3 | 0.0 | 0.00 | 0.00 | 0.00 | 21 | 1014.0 |
| 20260905144603 | 88 | 16 | 3.5 | 0.0 | 0.00 | 0.00 | 0.00 | 22 | 1014.0 |
| 20260905144403 | 88 | 16 | 3.5 | 0.0 | 0.00 | 0.00 | 0.00 | 22 | 1014.0 |
| 20260905144203 | 88 | 16 | 3.5 | 0.0 | 0.00 | 0.00 | 0.00 | 22 | 1014.0 |
| 20260905144002 | 89 | 16 | 3.5 | 0.0 | 0.00 | 0.00 | 0.00 | 22 | 1015.0 |
| 20260905143802 | 89 | 16 | 3.5 | 0.0 | 0.00 | 0.00 | 0.00 | 22 | 1015.0 |
| 20260905143602 | 89 | 16 | 3.5 | 0.0 | 0.00 | 0.00 | 0.00 | 22 | 1015.0 |
| 20260905143402 | 89 | 16 | 3.5 | 0.0 | 0.00 | 0.00 | 0.00 | 22 | 1015.0 |
| 20260905143202 | 89 | 16 | 3.5 | 0.0 | 0.00 | 0.00 | 0.00 | 22 | 1015.0 |
| 20260905143003 | 89 | 16 | 3.5 | 0.0 | 0.00 | 0.00 | 0.00 | 22 | 1015.0 |
| 20260905142802 | 90 | 16 | 3.5 | 0.0 | 0.00 | 0.00 | 0.00 | 22 | 1015.0 |
| 20260905142602 | 90 | 16 | 3.5 | 0.0 | 0.00 | 0.00 | 0.00 | 22 | 1015.0 |
| 20260905142402 | 90 | 16 | 3.5 | 0.0 | 0.00 | 0.00 | 0.00 | 22 | 1015.0 |
| 20260905142202 | 89 | 16 | 3.5 | 0.0 | 0.00 | 0.00 | 0.00 | 23 | 1015.0 |
| 20260905142002 | 89 | 16 | 3.5 | 0.0 | 0.00 | 0.00 | 0.00 | 23 | 1015.0 |
| 20260905141802 | 90 | 16 | 3.5 | 0.0 | 0.00 | 0.00 | 0.00 | 23 | 1015.0 |
| 20260905141603 | 90 | 16 | 3.5 | 0.0 | 0.00 | 0.00 | 0.00 | 23 | 1015.0 |
| 20260905141403 | 90 | 16 | 3.5 | 0.0 | 0.00 | 0.00 | 0.00 | 23 | 1015.0 |
| 20260905141204 | 90 | 16 | 3.5 | 0.0 | 0.00 | 0.00 | 0.00 | 23 | 1015.0 |
| 20260905141002 | 89 | 16 | 3.5 | 0.0 | 0.00 | 0.00 | 0.00 | 21 | 1014.0 |
| 20260905140802 | 89 | 16 | 3.5 | 0.0 | 0.00 | 0.00 | 0.00 | 21 | 1014.0 |
| 20260905140602 | 89 | 16 | 3.5 | 0.0 | 0.00 | 0.00 | 0.00 | 21 | 1014.0 |
| 20260905140402 | 89 | 16 | 3.5 | 0.0 | 0.00 | 0.00 | 0.00 | 21 | 1014.0 |
| 20260905140202 | 89 | 16 | 3.5 | 0.0 | 0.00 | 0.00 | 0.00 | 21 | 1014.0 |
| 20260905140002 | 90 | 16 | 3.5 | 0.0 | 0.00 | 0.00 | 0.00 | 21 | 1014.0 |
| 20260905135803 | 90 | 16 | 3.5 | 0.0 | 0.00 | 0.00 | 0.00 | 21 | 1014.0 |
| 20260905135602 | 90 | 16 | 3.5 | 0.0 | 0.00 | 0.00 | 0.00 | 21 | 1014.0 |
| 20260905135402 | 90 | 16 | 3.5 | 0.0 | 0.00 | 0.00 | 0.00 | 21 | 1014.0 |
| 20260905135202 | 90 | 16 | 3.5 | 0.0 | 0.00 | 0.00 | 0.00 | 21 | 1014.0 |
| 20260905135002 | 90 | 16 | 3.5 | 0.0 | 0.00 | 0.00 | 0.00 | 21 | 1014.0 |
| 20260905134802 | 89 | 27 | 3.5 | 0.0 | 0.00 | 0.00 | 0.00 | 22 | 1014.0 |
| 20260905134602 | 89 | 27 | 3.5 | 0.0 | 0.00 | 0.00 | 0.00 | 22 | 1014.0 |
| 20260905134402 | 89 | 27 | 3.5 | 0.0 | 0.00 | 0.00 | 0.00 | 22 | 1014.0 |
| 20260905134203 | 89 | 27 | 3.5 | 0.0 | 0.00 | 0.00 | 0.00 | 22 | 1014.0 |
| 20260905134003 | 89 | 27 | 3.5 | 0.0 | 0.00 | 0.00 | 0.00 | 22 | 1014.0 |
| 20260905133803 | 89 | 27 | 3.5 | 0.0 | 0.00 | 0.00 | 0.00 | 22 | 1014.0 |
| 20260905133603 | 90 | 27 | 3.5 | 0.0 | 0.00 | 0.00 | 0.00 | 22 | 1015.0 |
| 20260905133402 | 89 | 27 | 3.5 | 0.0 | 0.00 | 0.00 | 0.00 | 22 | 1014.0 |
| 20260905133202 | 90 | 27 | 3.5 | 0.0 | 0.00 | 0.00 | 0.00 | 22 | 1015.0 |
| 20260905133002 | 89 | 27 | 3.5 | 0.0 | 0.00 | 0.00 | 0.00 | 24 | 1015.0 |
| 20260905132802 | 90 | 27 | 3.5 | 0.0 | 0.00 | 0.00 | 0.00 | 22 | 1015.0 |
| 20260905132603 | 89 | 27 | 3.5 | 0.0 | 0.00 | 0.00 | 0.00 | 24 | 1015.0 |
| 20260905132402 | 89 | 27 | 3.5 | 0.0 | 0.00 | 0.00 | 0.00 | 24 | 1015.0 |
| 20260905132202 | 89 | 27 | 3.5 | 0.0 | 0.00 | 0.00 | 0.00 | 24 | 1015.0 |
| 20260905132002 | 89 | 27 | 3.5 | 0.0 | 0.00 | 0.00 | 0.00 | 22 | 1015.0 |
| 20260905131802 | 90 | 27 | 3.5 | 0.0 | 0.00 | 0.00 | 0.00 | 22 | 1015.0 |
| 20260905131602 | 90 | 27 | 3.5 | 0.0 | 0.00 | 0.00 | 0.00 | 22 | 1015.0 |
| 20260905131402 | 90 | 27 | 3.5 | 0.0 | 0.00 | 0.00 | 0.00 | 22 | 1015.0 |
| 20260905131203 | 90 | 27 | 3.5 | 0.0 | 0.00 | 0.00 | 0.00 | 22 | 1015.0 |
| 20260905131002 | 90 | 27 | 3.5 | 0.0 | 0.00 | 0.00 | 0.00 | 22 | 1015.0 |
| 20260905130802 | 90 | 27 | 3.5 | 0.0 | 0.00 | 0.00 | 0.00 | 22 | 1015.0 |
| 20260905130602 | 89 | 25 | 1.7 | 0.0 | 0.00 | 0.00 | 0.00 | 22 | 1015.0 |
| 20260905130402 | 89 | 25 | 1.7 | 0.0 | 0.00 | 0.00 | 0.00 | 22 | 1015.0 |
| 20260905130202 | 89 | 25 | 1.7 | 0.0 | 0.00 | 0.00 | 0.00 | 22 | 1015.0 |
| 20260905130002 | 89 | 25 | 1.7 | 0.0 | 0.00 | 0.00 | 0.00 | 22 | 1015.0 |
| 20260905125802 | 89 | 25 | 1.7 | 0.0 | 0.00 | 0.00 | 0.00 | 22 | 1015.0 |
| 20260905125603 | 89 | 25 | 1.7 | 0.0 | 0.00 | 0.00 | 0.00 | 22 | 1015.0 |
| 20260905125403 | 90 | 25 | 2.6 | 0.0 | 0.00 | 0.00 | 0.00 | 22 | 1015.0 |
| 20260905125202 | 90 | 25 | 2.6 | 0.0 | 0.00 | 0.00 | 0.00 | 22 | 1015.0 |
| 20260905125002 | 89 | 25 | 1.7 | 0.0 | 0.00 | 0.00 | 0.00 | 20 | 1015.0 |
| 20260905124802 | 89 | 25 | 1.7 | 0.0 | 0.00 | 0.00 | 0.00 | 20 | 1015.0 |
| 20260905124602 | 89 | 25 | 1.7 | 0.0 | 0.00 | 0.00 | 0.00 | 20 | 1015.0 |
| 20260905124402 | 89 | 25 | 1.7 | 0.0 | 0.00 | 0.00 | 0.00 | 20 | 1015.0 |
| 20260905124202 | 89 | 25 | 1.7 | 0.0 | 0.00 | 0.00 | 0.00 | 20 | 1015.0 |
| 20260905124003 | 90 | 25 | 2.6 | 0.0 | 0.00 | 0.00 | 0.00 | 20 | 1015.0 |
| 20260905123802 | 90 | 25 | 2.6 | 0.0 | 0.00 | 0.00 | 0.00 | 20 | 1015.0 |
| 20260905123603 | 90 | 25 | 2.6 | 0.0 | 0.00 | 0.00 | 0.00 | 20 | 1015.0 |
| 20260905123402 | 90 | 25 | 2.6 | 0.0 | 0.00 | 0.00 | 0.00 | 20 | 1015.0 |
| 20260905123202 | 90 | 25 | 2.6 | 0.0 | 0.00 | 0.00 | 0.00 | 20 | 1015.0 |
| 20260905123002 | 90 | 25 | 2.6 | 0.0 | 0.00 | 0.00 | 0.00 | 20 | 1015.0 |
| 20260905122802 | 88 | 41 | 0.9 | 0.0 | 0.00 | 0.00 | 0.00 | 21 | 1015.0 |
| 20260905122602 | 88 | 41 | 0.9 | 0.0 | 0.00 | 0.00 | 0.00 | 21 | 1015.0 |
| 20260905122403 | 88 | 41 | 0.9 | 0.0 | 0.00 | 0.00 | 0.00 | 21 | 1015.0 |
| 20260905122203 | 88 | 41 | 0.9 | 0.0 | 0.00 | 0.00 | 0.00 | 21 | 1015.0 |
| 20260905122002 | 89 | 41 | 0.9 | 0.0 | 0.00 | 0.00 | 0.00 | 21 | 1015.0 |
| 20260905121802 | 89 | 41 | 0.9 | 0.0 | 0.00 | 0.00 | 0.00 | 21 | 1015.0 |
| 20260905121602 | 89 | 41 | 0.9 | 0.0 | 0.00 | 0.00 | 0.00 | 21 | 1015.0 |
| 20260905121402 | 89 | 41 | 0.9 | 0.0 | 0.00 | 0.00 | 0.00 | 21 | 1015.0 |
| 20260905121202 | 89 | 41 | 0.9 | 0.0 | 0.00 | 0.00 | 0.00 | 21 | 1015.0 |
| 20260905121002 | 90 | 41 | 1.7 | 0.0 | 0.00 | 0.00 | 0.00 | 21 | 1015.0 |
| 20260905120802 | 90 | 41 | 1.7 | 0.0 | 0.00 | 0.00 | 0.00 | 21 | 1015.0 |
| 20260905120603 | 90 | 41 | 1.7 | 0.0 | 0.00 | 0.00 | 0.00 | 21 | 1015.0 |
| 20260905120403 | 90 | 41 | 1.7 | 0.0 | 0.00 | 0.00 | 0.00 | 21 | 1015.0 |
| 20260905120203 | 90 | 41 | 1.7 | 0.0 | 0.00 | 0.00 | 0.00 | 21 | 1015.0 |
| 20260905120002 | 90 | 41 | 1.7 | 0.0 | 0.00 | 0.00 | 0.00 | 21 | 1015.0 |
| 20260905115802 | 88 | 41 | 0.9 | 0.0 | 0.00 | 0.00 | 0.00 | 22 | 1015.0 |
| 20260905115604 | 88 | 41 | 0.9 | 0.0 | 0.00 | 0.00 | 0.00 | 22 | 1015.0 |
| 20260905115402 | 89 | 41 | 0.9 | 0.0 | 0.00 | 0.00 | 0.00 | 22 | 1015.0 |
| 20260905115202 | 89 | 41 | 0.9 | 0.0 | 0.00 | 0.00 | 0.00 | 22 | 1015.0 |
| 20260905115003 | 90 | 41 | 1.7 | 0.0 | 0.00 | 0.00 | 0.00 | 22 | 1015.0 |
| 20260905114803 | 90 | 41 | 1.7 | 0.0 | 0.00 | 0.00 | 0.00 | 22 | 1015.0 |
| 20260905114603 | 90 | 41 | 1.7 | 0.0 | 0.00 | 0.00 | 0.00 | 22 | 1015.0 |
| 20260905114402 | 90 | 41 | 1.7 | 0.0 | 0.00 | 0.00 | 0.00 | 22 | 1015.0 |
| 20260905114202 | 88 | 49 | 0.9 | 0.0 | 0.00 | 0.00 | 0.00 | 24 | 1015.0 |
| 20260905114002 | 88 | 49 | 0.9 | 0.0 | 0.00 | 0.00 | 0.00 | 24 | 1015.0 |
| 20260905113802 | 88 | 49 | 0.9 | 0.0 | 0.00 | 0.00 | 0.00 | 24 | 1015.0 |
| 20260905113602 | 88 | 49 | 0.9 | 0.0 | 0.00 | 0.00 | 0.00 | 24 | 1015.0 |
| 20260905113403 | 88 | 49 | 0.9 | 0.0 | 0.00 | 0.00 | 0.00 | 24 | 1015.0 |
| 20260905113202 | 88 | 49 | 0.9 | 0.0 | 0.00 | 0.00 | 0.00 | 24 | 1015.0 |
| 20260905113002 | 89 | 49 | 1.7 | 0.0 | 0.00 | 0.00 | 0.00 | 24 | 1016.0 |
| 20260905112802 | 89 | 49 | 1.7 | 0.0 | 0.00 | 0.00 | 0.00 | 24 | 1016.0 |
| 20260905112602 | 89 | 49 | 1.7 | 0.0 | 0.00 | 0.00 | 0.00 | 24 | 1016.0 |
| 20260905112402 | 87 | 49 | 0.9 | 0.0 | 0.00 | 0.00 | 0.00 | 22 | 1016.0 |
| 20260905112202 | 87 | 49 | 0.9 | 0.0 | 0.00 | 0.00 | 0.00 | 22 | 1016.0 |
| 20260905112003 | 87 | 49 | 0.9 | 0.0 | 0.00 | 0.00 | 0.00 | 22 | 1016.0 |
| 20260905111802 | 87 | 49 | 0.9 | 0.0 | 0.00 | 0.00 | 0.00 | 22 | 1016.0 |
| 20260905111603 | 89 | 49 | 1.7 | 0.0 | 0.00 | 0.00 | 0.00 | 24 | 1016.0 |
| 20260905111402 | 87 | 49 | 0.9 | 0.0 | 0.00 | 0.00 | 0.00 | 22 | 1016.0 |
| 20260905111203 | 88 | 49 | 0.9 | 0.0 | 0.00 | 0.00 | 0.00 | 22 | 1016.0 |
| 20260905111002 | 88 | 49 | 0.9 | 0.0 | 0.00 | 0.00 | 0.00 | 22 | 1016.0 |
| 20260905110802 | 88 | 49 | 0.9 | 0.0 | 0.00 | 0.00 | 0.00 | 22 | 1016.0 |
| 20260905110602 | 88 | 49 | 0.9 | 0.0 | 0.00 | 0.00 | 0.00 | 22 | 1016.0 |
| 20260905110403 | 88 | 49 | 0.9 | 0.0 | 0.00 | 0.00 | 0.00 | 22 | 1016.0 |
| 20260905110203 | 88 | 49 | 0.9 | 0.0 | 0.00 | 0.00 | 0.00 | 22 | 1016.0 |
| 20260905110002 | 89 | 49 | 1.7 | 0.0 | 0.00 | 0.00 | 0.00 | 22 | 1016.0 |
| 20260905105802 | 89 | 49 | 1.7 | 0.0 | 0.00 | 0.00 | 0.00 | 22 | 1016.0 |
| 20260905105602 | 89 | 49 | 1.7 | 0.0 | 0.00 | 0.00 | 0.00 | 22 | 1016.0 |
| 20260905105402 | 89 | 49 | 1.7 | 0.0 | 0.00 | 0.00 | 0.00 | 22 | 1016.0 |
| 20260905105202 | 89 | 49 | 1.7 | 0.0 | 0.00 | 0.00 | 0.00 | 22 | 1016.0 |
| 20260905105003 | 87 | 49 | 0.9 | 0.0 | 0.00 | 0.00 | 0.00 | 23 | 1016.0 |
| 20260905104803 | 87 | 49 | 0.9 | 0.0 | 0.00 | 0.00 | 0.00 | 23 | 1016.0 |
| 20260905104603 | 87 | 49 | 0.9 | 0.0 | 0.00 | 0.00 | 0.00 | 23 | 1016.0 |
| 20260905104402 | 87 | 49 | 0.9 | 0.0 | 0.00 | 0.00 | 0.00 | 23 | 1016.0 |
| 20260905104202 | 88 | 49 | 1.7 | 0.0 | 0.00 | 0.00 | 0.00 | 23 | 1016.0 |
| 20260905104002 | 88 | 49 | 1.7 | 0.0 | 0.00 | 0.00 | 0.00 | 23 | 1016.0 |
| 20260905103802 | 88 | 49 | 1.7 | 0.0 | 0.00 | 0.00 | 0.00 | 23 | 1016.0 |
| 20260905103602 | 85 | 46 | 0.9 | 0.0 | 0.00 | 0.00 | 0.00 | 26 | 1017.0 |
| 20260905103403 | 85 | 46 | 0.9 | 0.0 | 0.00 | 0.00 | 0.00 | 26 | 1017.0 |
| 20260905103203 | 88 | 49 | 1.7 | 0.0 | 0.00 | 0.00 | 0.00 | 23 | 1016.0 |
| 20260905103002 | 85 | 46 | 0.9 | 0.0 | 0.00 | 0.00 | 0.00 | 26 | 1017.0 |
| 20260905102802 | 85 | 46 | 0.9 | 0.0 | 0.00 | 0.00 | 0.00 | 26 | 1017.0 |
| 20260905102602 | 86 | 46 | 1.7 | 0.0 | 0.00 | 0.00 | 0.00 | 26 | 1017.0 |
| 20260905102402 | 86 | 46 | 1.7 | 0.0 | 0.00 | 0.00 | 0.00 | 26 | 1017.0 |
| 20260905102202 | 86 | 46 | 1.7 | 0.0 | 0.00 | 0.00 | 0.00 | 26 | 1017.0 |
| 20260905102003 | 86 | 46 | 1.7 | 0.0 | 0.00 | 0.00 | 0.00 | 26 | 1017.0 |
| 20260905101803 | 86 | 46 | 1.7 | 0.0 | 0.00 | 0.00 | 0.00 | 26 | 1017.0 |
| 20260905101603 | 86 | 46 | 1.7 | 0.0 | 0.00 | 0.00 | 0.00 | 26 | 1017.0 |
| 20260905101402 | 85 | 46 | 0.9 | 0.0 | 0.00 | 0.00 | 0.00 | 24 | 1017.0 |
| 20260905101202 | 85 | 46 | 0.9 | 0.0 | 0.00 | 0.00 | 0.00 | 24 | 1017.0 |
| 20260905101002 | 85 | 46 | 0.9 | 0.0 | 0.00 | 0.00 | 0.00 | 24 | 1017.0 |
| 20260905100802 | 85 | 46 | 0.9 | 0.0 | 0.00 | 0.00 | 0.00 | 24 | 1017.0 |
| 20260905100602 | 85 | 46 | 0.9 | 0.0 | 0.00 | 0.00 | 0.00 | 24 | 1017.0 |
| 20260905100403 | 85 | 46 | 0.9 | 0.0 | 0.00 | 0.00 | 0.00 | 24 | 1017.0 |
| 20260905100203 | 86 | 46 | 1.7 | 0.0 | 0.00 | 0.00 | 0.00 | 24 | 1017.0 |
| 20260905100002 | 86 | 46 | 1.7 | 0.0 | 0.00 | 0.00 | 0.00 | 24 | 1017.0 |
| 20260905095802 | 86 | 46 | 1.7 | 0.0 | 0.00 | 0.00 | 0.00 | 24 | 1017.0 |
| 20260905095602 | 86 | 46 | 1.7 | 0.0 | 0.00 | 0.00 | 0.00 | 24 | 1017.0 |
| 20260905095402 | 85 | 46 | 0.9 | 0.0 | 0.00 | 0.00 | 0.00 | 25 | 1017.0 |
| 20260905095202 | 85 | 46 | 0.9 | 0.0 | 0.00 | 0.00 | 0.00 | 25 | 1017.0 |
| 20260905095003 | 85 | 46 | 0.9 | 0.0 | 0.00 | 0.00 | 0.00 | 25 | 1017.0 |
| 20260905094803 | 85 | 46 | 0.9 | 0.0 | 0.00 | 0.00 | 0.00 | 25 | 1017.0 |
| 20260905094603 | 86 | 46 | 1.7 | 0.0 | 0.00 | 0.00 | 0.00 | 25 | 1017.0 |
| 20260905094402 | 86 | 46 | 1.7 | 0.0 | 0.00 | 0.00 | 0.00 | 25 | 1017.0 |
| 20260905094202 | 86 | 46 | 1.7 | 0.0 | 0.00 | 0.00 | 0.00 | 25 | 1017.0 |
| 20260905094002 | 86 | 46 | 1.7 | 0.0 | 0.00 | 0.00 | 0.00 | 25 | 1017.0 |
| 20260905093802 | 86 | 46 | 1.7 | 0.0 | 0.00 | 0.00 | 0.00 | 25 | 1017.0 |
| 20260905093602 | 83 | 12 | 0.9 | 0.0 | 0.00 | 0.00 | 0.00 | 27 | 1017.0 |
| 20260905093402 | 85 | 12 | 1.7 | 0.0 | 0.00 | 0.00 | 0.00 | 28 | 1017.0 |
| 20260905093203 | 85 | 12 | 1.7 | 0.0 | 0.00 | 0.00 | 0.00 | 28 | 1017.0 |
| 20260905093003 | 85 | 12 | 1.7 | 0.0 | 0.00 | 0.00 | 0.00 | 28 | 1017.0 |
| 20260905092802 | 83 | 12 | 0.9 | 0.0 | 0.00 | 0.00 | 0.00 | 27 | 1017.0 |
| 20260905092602 | 83 | 12 | 0.9 | 0.0 | 0.00 | 0.00 | 0.00 | 27 | 1017.0 |
| 20260905092402 | 84 | 12 | 0.9 | 0.0 | 0.00 | 0.00 | 0.00 | 27 | 1017.0 |
| 20260905092202 | 84 | 12 | 0.9 | 0.0 | 0.00 | 0.00 | 0.00 | 27 | 1017.0 |
| 20260905092002 | 83 | 12 | 0.9 | 0.0 | 0.00 | 0.00 | 0.00 | 27 | 1017.0 |
| 20260905091803 | 83 | 12 | 0.9 | 0.0 | 0.00 | 0.00 | 0.00 | 27 | 1017.0 |
| 20260905091603 | 83 | 12 | 0.9 | 0.0 | 0.00 | 0.00 | 0.00 | 27 | 1017.0 |
| 20260905091402 | 84 | 12 | 0.9 | 0.0 | 0.00 | 0.00 | 0.00 | 27 | 1017.0 |
| 20260905091202 | 85 | 12 | 1.7 | 0.0 | 0.00 | 0.00 | 0.00 | 27 | 1017.0 |
| 20260905091002 | 85 | 12 | 1.7 | 0.0 | 0.00 | 0.00 | 0.00 | 27 | 1017.0 |
| 20260905090802 | 85 | 12 | 1.7 | 0.0 | 0.00 | 0.00 | 0.00 | 27 | 1017.0 |
| 20260905090602 | 85 | 12 | 1.7 | 0.0 | 0.00 | 0.00 | 0.00 | 27 | 1017.0 |
| 20260905090402 | 85 | 12 | 1.7 | 0.0 | 0.00 | 0.00 | 0.00 | 27 | 1017.0 |
| 20260905090202 | 83 | 12 | 0.9 | 0.0 | 0.00 | 0.00 | 0.00 | 28 | 1017.0 |
| 20260905090003 | 83 | 12 | 0.9 | 0.0 | 0.00 | 0.00 | 0.00 | 28 | 1017.0 |
| 20260905085802 | 83 | 12 | 0.9 | 0.0 | 0.00 | 0.00 | 0.00 | 28 | 1017.0 |
| 20260905085603 | 83 | 12 | 0.9 | 0.0 | 0.00 | 0.00 | 0.00 | 28 | 1017.0 |
| 20260905085403 | 83 | 12 | 0.9 | 0.0 | 0.00 | 0.00 | 0.00 | 28 | 1017.0 |
| 20260905085202 | 83 | 12 | 0.9 | 0.0 | 0.00 | 0.00 | 0.00 | 28 | 1017.0 |
| 20260905085002 | 84 | 12 | 0.9 | 0.0 | 0.00 | 0.00 | 0.00 | 28 | 1017.0 |
| 20260905084802 | 84 | 12 | 0.9 | 0.0 | 0.00 | 0.00 | 0.00 | 28 | 1017.0 |
| 20260905084602 | 85 | 12 | 1.7 | 0.0 | 0.00 | 0.00 | 0.00 | 28 | 1017.0 |
| 20260905084403 | 85 | 12 | 1.7 | 0.0 | 0.00 | 0.00 | 0.00 | 28 | 1017.0 |
| 20260905084202 | 85 | 12 | 1.7 | 0.0 | 0.00 | 0.00 | 0.00 | 28 | 1017.0 |
| 20260905084002 | 85 | 12 | 1.7 | 0.0 | 0.00 | 0.00 | 0.00 | 28 | 1017.0 |
| 20260905083802 | 85 | 12 | 1.7 | 0.0 | 0.00 | 0.00 | 0.00 | 28 | 1017.0 |
| 20260905083602 | 85 | 12 | 1.7 | 0.0 | 0.00 | 0.00 | 0.00 | 28 | 1017.0 |
| 20260905083402 | 82 | 330 | 1.7 | 0.0 | 0.00 | 0.00 | 0.00 | 33 | 1018.0 |
| 20260905083202 | 82 | 330 | 1.7 | 0.0 | 0.00 | 0.00 | 0.00 | 33 | 1018.0 |
| 20260905083002 | 82 | 330 | 1.7 | 0.0 | 0.00 | 0.00 | 0.00 | 33 | 1018.0 |
| 20260905082803 | 82 | 330 | 1.7 | 0.0 | 0.00 | 0.00 | 0.00 | 33 | 1018.0 |
| 20260905082604 | 82 | 330 | 1.7 | 0.0 | 0.00 | 0.00 | 0.00 | 33 | 1018.0 |
| 20260905082402 | 82 | 330 | 1.7 | 0.0 | 0.00 | 0.00 | 0.00 | 33 | 1018.0 |
| 20260905082202 | 82 | 330 | 1.7 | 0.0 | 0.00 | 0.00 | 0.00 | 33 | 1018.0 |
| 20260905082002 | 83 | 330 | 2.6 | 0.0 | 0.00 | 0.00 | 0.00 | 33 | 1018.0 |
| 20260905081802 | 83 | 330 | 2.6 | 0.0 | 0.00 | 0.00 | 0.00 | 33 | 1018.0 |
| 20260905081602 | 83 | 330 | 2.6 | 0.0 | 0.00 | 0.00 | 0.00 | 33 | 1018.0 |
| 20260905081403 | 80 | 330 | 0.9 | 0.0 | 0.00 | 0.00 | 0.00 | 32 | 1018.0 |
| 20260905081203 | 80 | 330 | 0.9 | 0.0 | 0.00 | 0.00 | 0.00 | 32 | 1018.0 |
| 20260905081003 | 83 | 330 | 2.6 | 0.0 | 0.00 | 0.00 | 0.00 | 33 | 1018.0 |
| 20260905080802 | 83 | 330 | 2.6 | 0.0 | 0.00 | 0.00 | 0.00 | 33 | 1018.0 |
| 20260905080602 | 83 | 330 | 2.6 | 0.0 | 0.00 | 0.00 | 0.00 | 33 | 1018.0 |
| 20260905080402 | 80 | 330 | 0.9 | 0.0 | 0.00 | 0.00 | 0.00 | 32 | 1018.0 |
| 20260905080202 | 81 | 330 | 1.7 | 0.0 | 0.00 | 0.00 | 0.00 | 32 | 1018.0 |
| 20260905080002 | 81 | 330 | 1.7 | 0.0 | 0.00 | 0.00 | 0.00 | 32 | 1018.0 |
| 20260905075802 | 81 | 330 | 1.7 | 0.0 | 0.00 | 0.00 | 0.00 | 32 | 1018.0 |
| 20260905075603 | 82 | 330 | 2.6 | 0.0 | 0.00 | 0.00 | 0.00 | 32 | 1018.0 |
| 20260905075403 | 82 | 330 | 2.6 | 0.0 | 0.00 | 0.00 | 0.00 | 32 | 1018.0 |
| 20260905075202 | 80 | 330 | 0.9 | 0.0 | 0.00 | 0.00 | 0.00 | 32 | 1018.0 |
| 20260905075002 | 80 | 330 | 0.9 | 0.0 | 0.00 | 0.00 | 0.00 | 32 | 1018.0 |
| 20260905074802 | 80 | 330 | 0.9 | 0.0 | 0.00 | 0.00 | 0.00 | 32 | 1018.0 |
| 20260905074602 | 81 | 330 | 1.7 | 0.0 | 0.00 | 0.00 | 0.00 | 32 | 1018.0 |
| 20260905074402 | 81 | 330 | 1.7 | 0.0 | 0.00 | 0.00 | 0.00 | 32 | 1018.0 |
| 20260905074202 | 81 | 330 | 1.7 | 0.0 | 0.00 | 0.00 | 0.00 | 32 | 1018.0 |
| 20260905074003 | 82 | 330 | 2.6 | 0.0 | 0.00 | 0.00 | 0.00 | 32 | 1018.0 |
| 20260905073802 | 82 | 330 | 2.6 | 0.0 | 0.00 | 0.00 | 0.00 | 32 | 1018.0 |
| 20260905073603 | 77 | 320 | 4.3 | 0.0 | 0.00 | 0.00 | 0.00 | 39 | 1018.0 |
| 20260905073402 | 77 | 320 | 4.3 | 0.0 | 0.00 | 0.00 | 0.00 | 39 | 1018.0 |
| 20260905073202 | 77 | 320 | 4.3 | 0.0 | 0.00 | 0.00 | 0.00 | 39 | 1018.0 |
| 20260905073002 | 77 | 320 | 4.3 | 0.0 | 0.00 | 0.00 | 0.00 | 39 | 1018.0 |
| 20260905072802 | 77 | 320 | 4.3 | 0.0 | 0.00 | 0.00 | 0.00 | 39 | 1018.0 |
| 20260905072603 | 77 | 320 | 4.3 | 0.0 | 0.00 | 0.00 | 0.00 | 39 | 1018.0 |
| 20260905072403 | 76 | 320 | 4.3 | 0.0 | 0.00 | 0.00 | 0.00 | 38 | 1018.0 |
| 20260905072203 | 76 | 320 | 4.3 | 0.0 | 0.00 | 0.00 | 0.00 | 38 | 1018.0 |
| 20260905072002 | 76 | 320 | 4.3 | 0.0 | 0.00 | 0.00 | 0.00 | 38 | 1018.0 |
| 20260905071802 | 76 | 320 | 4.3 | 0.0 | 0.00 | 0.00 | 0.00 | 38 | 1018.0 |
| 20260905071602 | 76 | 320 | 4.3 | 0.0 | 0.00 | 0.00 | 0.00 | 38 | 1018.0 |
| 20260905071402 | 76 | 320 | 4.3 | 0.0 | 0.00 | 0.00 | 0.00 | 38 | 1018.0 |
| 20260905071202 | 75 | 320 | 4.3 | 0.0 | 0.00 | 0.00 | 0.00 | 37 | 1018.0 |
| 20260905071002 | 75 | 320 | 4.3 | 0.0 | 0.00 | 0.00 | 0.00 | 37 | 1018.0 |
| 20260905070803 | 75 | 320 | 4.3 | 0.0 | 0.00 | 0.00 | 0.00 | 37 | 1018.0 |
| 20260905070603 | 75 | 320 | 4.3 | 0.0 | 0.00 | 0.00 | 0.00 | 37 | 1018.0 |
| 20260905070402 | 75 | 320 | 4.3 | 0.0 | 0.00 | 0.00 | 0.00 | 37 | 1018.0 |
| 20260905070202 | 75 | 320 | 4.3 | 0.0 | 0.00 | 0.00 | 0.00 | 37 | 1018.0 |
| 20260905070002 | 75 | 320 | 4.3 | 0.0 | 0.00 | 0.00 | 0.00 | 37 | 1018.0 |
| 20260905065802 | 75 | 320 | 4.3 | 0.0 | 0.00 | 0.00 | 0.00 | 37 | 1018.0 |
| 20260905065602 | 75 | 320 | 4.3 | 0.0 | 0.00 | 0.00 | 0.00 | 37 | 1018.0 |
| 20260905065402 | 75 | 320 | 4.3 | 0.0 | 0.00 | 0.00 | 0.00 | 37 | 1018.0 |